<?xml version="1.0" encoding="UTF-8" standalone="no" ?>
<gpx xmlns="http://www.topografix.com/GPX/1/1" xmlns:xsi="http://www.w3.org/2001/XMLSchema-instance" xsi:schemaLocation="http://www.topografix.com/GPX/1/1 http://www.topografix.com/GPX/1/1/gpx.xsd" version="1.1" creator="VisuGPX - https://www.visugpx.com">
  <metadata>
    <name>Albon d'Ardèche col des 4 vios 19km</name>
    <desc><![CDATA[Réalisé partiellement, à valider sur le terrain.]]></desc>
  </metadata>
  <trk>
    <name><![CDATA[Albon d'Ardèche col des 4 vios]]></name>
    <extensions>
      <line xmlns="http://www.topografix.com/GPX/gpx_style/0/2">
        <color>0000FF</color>
        <width>4</width>
      </line>
    </extensions>
    <trkseg>
      <trkpt lat="44.8211" lon="4.42823">
        <ele>637</ele>
        <time>2014-11-13T09:54:45Z</time>
        <extensions>
          <visugpx:TrkExtension xmlns:visugpx="https://www.visugpx.com/editgpx/">
            <visugpx:node>11</visugpx:node>
            </visugpx:TrkExtension>
        </extensions>
      </trkpt>
      <trkpt lat="44.82106" lon="4.42823">
        <ele>637</ele>
        <time>2014-11-13T09:54:50Z</time>
      </trkpt>
      <trkpt lat="44.82097" lon="4.42834">
        <ele>635</ele>
        <time>2014-11-13T09:55:05Z</time>
      </trkpt>
      <trkpt lat="44.82091" lon="4.42853">
        <ele>635</ele>
        <time>2014-11-13T09:55:20Z</time>
      </trkpt>
      <trkpt lat="44.82097" lon="4.42872">
        <ele>635</ele>
        <time>2014-11-13T09:55:35Z</time>
      </trkpt>
      <trkpt lat="44.821" lon="4.42891">
        <ele>634</ele>
        <time>2014-11-13T09:55:45Z</time>
      </trkpt>
      <trkpt lat="44.82103" lon="4.42919">
        <ele>632</ele>
        <time>2014-11-13T09:56:00Z</time>
      </trkpt>
      <trkpt lat="44.82102" lon="4.42945">
        <ele>631</ele>
        <time>2014-11-13T09:56:15Z</time>
      </trkpt>
      <trkpt lat="44.82102" lon="4.4296">
        <ele>631</ele>
        <time>2014-11-13T09:56:25Z</time>
      </trkpt>
      <trkpt lat="44.8211" lon="4.42988">
        <ele>632</ele>
        <time>2014-11-13T09:56:40Z</time>
      </trkpt>
      <trkpt lat="44.82119" lon="4.43015">
        <ele>638</ele>
        <time>2014-11-13T09:56:55Z</time>
      </trkpt>
      <trkpt lat="44.82128" lon="4.43031">
        <ele>631</ele>
        <time>2014-11-13T09:57:10Z</time>
      </trkpt>
      <trkpt lat="44.82132" lon="4.4304">
        <ele>631</ele>
        <time>2014-11-13T09:57:20Z</time>
      </trkpt>
      <trkpt lat="44.82144" lon="4.43055">
        <ele>642</ele>
        <time>2014-11-13T09:57:35Z</time>
      </trkpt>
      <trkpt lat="44.82165" lon="4.43052">
        <ele>637</ele>
        <time>2014-11-13T09:57:50Z</time>
      </trkpt>
      <trkpt lat="44.82184" lon="4.43048">
        <ele>631</ele>
        <time>2014-11-13T09:58:05Z</time>
      </trkpt>
      <trkpt lat="44.82199" lon="4.43058">
        <ele>631</ele>
        <time>2014-11-13T09:58:15Z</time>
      </trkpt>
      <trkpt lat="44.82218" lon="4.4307">
        <ele>635</ele>
        <time>2014-11-13T09:58:30Z</time>
      </trkpt>
      <trkpt lat="44.82235" lon="4.43083">
        <ele>635</ele>
        <time>2014-11-13T09:58:45Z</time>
      </trkpt>
      <trkpt lat="44.82239" lon="4.43088">
        <ele>628</ele>
        <time>2014-11-13T09:59:00Z</time>
      </trkpt>
      <trkpt lat="44.82253" lon="4.43105">
        <ele>632</ele>
        <time>2014-11-13T09:59:15Z</time>
      </trkpt>
      <trkpt lat="44.82259" lon="4.43127">
        <ele>633</ele>
        <time>2014-11-13T09:59:30Z</time>
      </trkpt>
      <trkpt lat="44.82256" lon="4.43151">
        <ele>633</ele>
        <time>2014-11-13T09:59:45Z</time>
      </trkpt>
      <trkpt lat="44.82251" lon="4.4316">
        <ele>635</ele>
        <time>2014-11-13T09:59:55Z</time>
      </trkpt>
      <trkpt lat="44.82245" lon="4.43176">
        <ele>635</ele>
        <time>2014-11-13T10:00:10Z</time>
      </trkpt>
      <trkpt lat="44.82234" lon="4.43188">
        <ele>651</ele>
        <time>2014-11-13T10:00:25Z</time>
      </trkpt>
      <trkpt lat="44.82227" lon="4.432">
        <ele>651</ele>
        <time>2014-11-13T10:00:40Z</time>
      </trkpt>
      <trkpt lat="44.82222" lon="4.43208">
        <ele>651</ele>
        <time>2014-11-13T10:00:50Z</time>
      </trkpt>
      <trkpt lat="44.82212" lon="4.43221">
        <ele>646</ele>
        <time>2014-11-13T10:01:05Z</time>
      </trkpt>
      <trkpt lat="44.82203" lon="4.43235">
        <ele>661</ele>
        <time>2014-11-13T10:01:20Z</time>
      </trkpt>
      <trkpt lat="44.82197" lon="4.43251">
        <ele>658</ele>
        <time>2014-11-13T10:01:35Z</time>
      </trkpt>
      <trkpt lat="44.82192" lon="4.43257">
        <ele>658</ele>
        <time>2014-11-13T10:01:45Z</time>
      </trkpt>
      <trkpt lat="44.82183" lon="4.43271">
        <ele>654</ele>
        <time>2014-11-13T10:02:00Z</time>
      </trkpt>
      <trkpt lat="44.82171" lon="4.43281">
        <ele>665</ele>
        <time>2014-11-13T10:02:15Z</time>
      </trkpt>
      <trkpt lat="44.82157" lon="4.43291">
        <ele>665</ele>
        <time>2014-11-13T10:02:25Z</time>
      </trkpt>
      <trkpt lat="44.82143" lon="4.433">
        <ele>668</ele>
        <time>2014-11-13T10:02:40Z</time>
      </trkpt>
      <trkpt lat="44.82133" lon="4.43306">
        <ele>668</ele>
        <time>2014-11-13T10:02:55Z</time>
      </trkpt>
      <trkpt lat="44.82124" lon="4.43311">
        <ele>680</ele>
        <time>2014-11-13T10:03:10Z</time>
      </trkpt>
      <trkpt lat="44.82121" lon="4.43316">
        <ele>680</ele>
        <time>2014-11-13T10:03:20Z</time>
      </trkpt>
      <trkpt lat="44.82119" lon="4.43322">
        <ele>679</ele>
        <time>2014-11-13T10:03:45Z</time>
      </trkpt>
      <trkpt lat="44.82116" lon="4.43345">
        <ele>679</ele>
        <time>2014-11-13T10:04:00Z</time>
      </trkpt>
      <trkpt lat="44.82115" lon="4.43351">
        <ele>678</ele>
        <time>2014-11-13T10:04:15Z</time>
      </trkpt>
      <trkpt lat="44.82105" lon="4.43348">
        <ele>678</ele>
        <time>2014-11-13T10:04:30Z</time>
      </trkpt>
      <trkpt lat="44.82099" lon="4.43347">
        <ele>679</ele>
        <time>2014-11-13T10:04:45Z</time>
      </trkpt>
      <trkpt lat="44.821" lon="4.43362">
        <ele>678</ele>
        <time>2014-11-13T10:05:00Z</time>
      </trkpt>
      <trkpt lat="44.82096" lon="4.43376">
        <ele>687</ele>
        <time>2014-11-13T10:05:10Z</time>
      </trkpt>
      <trkpt lat="44.8209" lon="4.43387">
        <ele>687</ele>
        <time>2014-11-13T10:05:25Z</time>
      </trkpt>
      <trkpt lat="44.82078" lon="4.43391">
        <ele>687</ele>
        <time>2014-11-13T10:05:40Z</time>
      </trkpt>
      <trkpt lat="44.82081" lon="4.43399">
        <ele>687</ele>
        <time>2014-11-13T10:05:55Z</time>
      </trkpt>
      <trkpt lat="44.82084" lon="4.43411">
        <ele>686</ele>
        <time>2014-11-13T10:06:05Z</time>
      </trkpt>
      <trkpt lat="44.82087" lon="4.43428">
        <ele>686</ele>
        <time>2014-11-13T10:06:20Z</time>
      </trkpt>
      <trkpt lat="44.82075" lon="4.43436">
        <ele>684</ele>
        <time>2014-11-13T10:06:35Z</time>
      </trkpt>
      <trkpt lat="44.8206" lon="4.4344">
        <ele>691</ele>
        <time>2014-11-13T10:06:50Z</time>
      </trkpt>
      <trkpt lat="44.82049" lon="4.43441">
        <ele>691</ele>
        <time>2014-11-13T10:07:00Z</time>
      </trkpt>
      <trkpt lat="44.82036" lon="4.43441">
        <ele>699</ele>
        <time>2014-11-13T10:07:15Z</time>
      </trkpt>
      <trkpt lat="44.82035" lon="4.43451">
        <ele>699</ele>
        <time>2014-11-13T10:07:30Z</time>
      </trkpt>
      <trkpt lat="44.82032" lon="4.4346">
        <ele>698</ele>
        <time>2014-11-13T10:07:40Z</time>
      </trkpt>
      <trkpt lat="44.82025" lon="4.43469">
        <ele>698</ele>
        <time>2014-11-13T10:07:55Z</time>
      </trkpt>
      <trkpt lat="44.82022" lon="4.43481">
        <ele>698</ele>
        <time>2014-11-13T10:08:10Z</time>
      </trkpt>
      <trkpt lat="44.82013" lon="4.43492">
        <ele>706</ele>
        <time>2014-11-13T10:08:25Z</time>
      </trkpt>
      <trkpt lat="44.82009" lon="4.43496">
        <ele>706</ele>
        <time>2014-11-13T10:08:35Z</time>
      </trkpt>
      <trkpt lat="44.81996" lon="4.43496">
        <ele>706</ele>
        <time>2014-11-13T10:08:50Z</time>
      </trkpt>
      <trkpt lat="44.81986" lon="4.435">
        <ele>714</ele>
        <time>2014-11-13T10:09:05Z</time>
      </trkpt>
      <trkpt lat="44.81979" lon="4.4351">
        <ele>714</ele>
        <time>2014-11-13T10:09:20Z</time>
      </trkpt>
      <trkpt lat="44.81972" lon="4.43516">
        <ele>708</ele>
        <time>2014-11-13T10:09:30Z</time>
      </trkpt>
      <trkpt lat="44.81963" lon="4.43521">
        <ele>708</ele>
        <time>2014-11-13T10:09:45Z</time>
      </trkpt>
      <trkpt lat="44.81953" lon="4.4352">
        <ele>718</ele>
        <time>2014-11-13T10:10:00Z</time>
      </trkpt>
      <trkpt lat="44.81952" lon="4.43519">
        <ele>718</ele>
        <time>2014-11-13T10:10:15Z</time>
      </trkpt>
      <trkpt lat="44.81954" lon="4.43519">
        <ele>718</ele>
        <time>2014-11-13T10:10:30Z</time>
      </trkpt>
      <trkpt lat="44.8195" lon="4.4353">
        <ele>718</ele>
        <time>2014-11-13T10:10:45Z</time>
      </trkpt>
      <trkpt lat="44.81937" lon="4.43547">
        <ele>710</ele>
        <time>2014-11-13T10:11:00Z</time>
      </trkpt>
      <trkpt lat="44.81929" lon="4.43557">
        <ele>721</ele>
        <time>2014-11-13T10:11:10Z</time>
      </trkpt>
      <trkpt lat="44.81923" lon="4.43577">
        <ele>719</ele>
        <time>2014-11-13T10:11:25Z</time>
      </trkpt>
      <trkpt lat="44.81923" lon="4.43598">
        <ele>720</ele>
        <time>2014-11-13T10:11:40Z</time>
      </trkpt>
      <trkpt lat="44.81929" lon="4.43619">
        <ele>720</ele>
        <time>2014-11-13T10:11:55Z</time>
      </trkpt>
      <trkpt lat="44.81932" lon="4.43636">
        <ele>711</ele>
        <time>2014-11-13T10:12:05Z</time>
      </trkpt>
      <trkpt lat="44.81937" lon="4.43659">
        <ele>712</ele>
        <time>2014-11-13T10:12:20Z</time>
      </trkpt>
      <trkpt lat="44.81945" lon="4.43682">
        <ele>715</ele>
        <time>2014-11-13T10:12:35Z</time>
      </trkpt>
      <trkpt lat="44.81952" lon="4.43706">
        <ele>715</ele>
        <time>2014-11-13T10:12:50Z</time>
      </trkpt>
      <trkpt lat="44.81959" lon="4.43721">
        <ele>713</ele>
        <time>2014-11-13T10:13:00Z</time>
      </trkpt>
      <trkpt lat="44.81965" lon="4.43748">
        <ele>714</ele>
        <time>2014-11-13T10:13:15Z</time>
      </trkpt>
      <trkpt lat="44.81959" lon="4.43767">
        <ele>715</ele>
        <time>2014-11-13T10:13:30Z</time>
      </trkpt>
      <trkpt lat="44.81954" lon="4.43762">
        <ele>718</ele>
        <time>2014-11-13T10:13:40Z</time>
      </trkpt>
      <trkpt lat="44.81942" lon="4.4375">
        <ele>718</ele>
        <time>2014-11-13T10:13:55Z</time>
      </trkpt>
      <trkpt lat="44.81932" lon="4.43743">
        <ele>718</ele>
        <time>2014-11-13T10:14:10Z</time>
      </trkpt>
      <trkpt lat="44.81924" lon="4.43736">
        <ele>724</ele>
        <time>2014-11-13T10:14:25Z</time>
      </trkpt>
      <trkpt lat="44.81917" lon="4.43732">
        <ele>723</ele>
        <time>2014-11-13T10:14:35Z</time>
      </trkpt>
      <trkpt lat="44.81908" lon="4.43723">
        <ele>723</ele>
        <time>2014-11-13T10:14:50Z</time>
      </trkpt>
      <trkpt lat="44.819" lon="4.43715">
        <ele>731</ele>
        <time>2014-11-13T10:15:05Z</time>
      </trkpt>
      <trkpt lat="44.81887" lon="4.43704">
        <ele>732</ele>
        <time>2014-11-13T10:15:20Z</time>
      </trkpt>
      <trkpt lat="44.81882" lon="4.43699">
        <ele>732</ele>
        <time>2014-11-13T10:15:30Z</time>
      </trkpt>
      <trkpt lat="44.81873" lon="4.43693">
        <ele>740</ele>
        <time>2014-11-13T10:15:45Z</time>
      </trkpt>
      <trkpt lat="44.81865" lon="4.43686">
        <ele>740</ele>
        <time>2014-11-13T10:16:00Z</time>
      </trkpt>
      <trkpt lat="44.8186" lon="4.43678">
        <ele>742</ele>
        <time>2014-11-13T10:16:10Z</time>
      </trkpt>
      <trkpt lat="44.81852" lon="4.4367">
        <ele>742</ele>
        <time>2014-11-13T10:16:25Z</time>
      </trkpt>
      <trkpt lat="44.81842" lon="4.43667">
        <ele>749</ele>
        <time>2014-11-13T10:16:40Z</time>
      </trkpt>
      <trkpt lat="44.81836" lon="4.4367">
        <ele>749</ele>
        <time>2014-11-13T10:16:55Z</time>
      </trkpt>
      <trkpt lat="44.81824" lon="4.4368">
        <ele>749</ele>
        <time>2014-11-13T10:17:10Z</time>
      </trkpt>
      <trkpt lat="44.81814" lon="4.43685">
        <ele>753</ele>
        <time>2014-11-13T10:17:25Z</time>
      </trkpt>
      <trkpt lat="44.81816" lon="4.43685">
        <ele>753</ele>
        <time>2014-11-13T10:18:05Z</time>
      </trkpt>
      <trkpt lat="44.81803" lon="4.43688">
        <ele>753</ele>
        <time>2014-11-13T10:18:20Z</time>
      </trkpt>
      <trkpt lat="44.81793" lon="4.43695">
        <ele>753</ele>
        <time>2014-11-13T10:18:35Z</time>
      </trkpt>
      <trkpt lat="44.81786" lon="4.43691">
        <ele>758</ele>
        <time>2014-11-13T10:18:45Z</time>
      </trkpt>
      <trkpt lat="44.81774" lon="4.43691">
        <ele>758</ele>
        <time>2014-11-13T10:19:00Z</time>
      </trkpt>
      <trkpt lat="44.81763" lon="4.43694">
        <ele>763</ele>
        <time>2014-11-13T10:19:15Z</time>
      </trkpt>
      <trkpt lat="44.81756" lon="4.43688">
        <ele>763</ele>
        <time>2014-11-13T10:19:30Z</time>
      </trkpt>
      <trkpt lat="44.81749" lon="4.43684">
        <ele>763</ele>
        <time>2014-11-13T10:19:40Z</time>
      </trkpt>
      <trkpt lat="44.81743" lon="4.43681">
        <ele>763</ele>
        <time>2014-11-13T10:21:55Z</time>
      </trkpt>
      <trkpt lat="44.81737" lon="4.43685">
        <ele>763</ele>
        <time>2014-11-13T10:22:10Z</time>
      </trkpt>
      <trkpt lat="44.81733" lon="4.43691">
        <ele>771</ele>
        <time>2014-11-13T10:22:25Z</time>
      </trkpt>
      <trkpt lat="44.8173" lon="4.43687">
        <ele>766.3</ele>
        <time>2014-11-13T10:22:35Z</time>
      </trkpt>
      <trkpt lat="44.81723" lon="4.43681">
        <ele>767.1</ele>
        <time>2014-11-13T10:22:50Z</time>
      </trkpt>
      <trkpt lat="44.8171" lon="4.43674">
        <ele>768.9</ele>
        <time>2014-11-13T10:23:05Z</time>
      </trkpt>
      <trkpt lat="44.81708" lon="4.43671">
        <ele>768.7</ele>
        <time>2014-11-13T10:23:20Z</time>
      </trkpt>
      <trkpt lat="44.81701" lon="4.43668">
        <ele>769.5</ele>
        <time>2014-11-13T10:23:30Z</time>
      </trkpt>
      <trkpt lat="44.81693" lon="4.43667">
        <ele>771.7</ele>
        <time>2014-11-13T10:23:45Z</time>
      </trkpt>
      <trkpt lat="44.81705" lon="4.43696">
        <ele>777.6</ele>
        <time>2014-11-13T10:28:15Z</time>
      </trkpt>
      <trkpt lat="44.81707" lon="4.43702">
        <ele>782</ele>
        <time>2014-11-13T10:28:25Z</time>
      </trkpt>
      <trkpt lat="44.81708" lon="4.43705">
        <ele>782</ele>
        <time>2014-11-13T10:28:45Z</time>
      </trkpt>
      <trkpt lat="44.81696" lon="4.43695">
        <ele>782</ele>
        <time>2014-11-13T10:29:20Z</time>
      </trkpt>
      <trkpt lat="44.8169" lon="4.43688">
        <ele>782</ele>
        <time>2014-11-13T10:29:30Z</time>
      </trkpt>
      <trkpt lat="44.81684" lon="4.43685">
        <ele>782</ele>
        <time>2014-11-13T10:29:45Z</time>
      </trkpt>
      <trkpt lat="44.81681" lon="4.4369">
        <ele>782</ele>
        <time>2014-11-13T10:30:00Z</time>
      </trkpt>
      <trkpt lat="44.81671" lon="4.43687">
        <ele>790</ele>
        <time>2014-11-13T10:30:15Z</time>
      </trkpt>
      <trkpt lat="44.81665" lon="4.43687">
        <ele>790</ele>
        <time>2014-11-13T10:30:25Z</time>
      </trkpt>
      <trkpt lat="44.81657" lon="4.43691">
        <ele>790</ele>
        <time>2014-11-13T10:30:55Z</time>
      </trkpt>
      <trkpt lat="44.81658" lon="4.4371">
        <ele>795</ele>
        <time>2014-11-13T10:31:25Z</time>
      </trkpt>
      <trkpt lat="44.81661" lon="4.43722">
        <ele>795</ele>
        <time>2014-11-13T10:31:40Z</time>
      </trkpt>
      <trkpt lat="44.81665" lon="4.43727">
        <ele>795</ele>
        <time>2014-11-13T10:31:50Z</time>
      </trkpt>
      <trkpt lat="44.81669" lon="4.4374">
        <ele>802</ele>
        <time>2014-11-13T10:32:05Z</time>
      </trkpt>
      <trkpt lat="44.81674" lon="4.43748">
        <ele>802</ele>
        <time>2014-11-13T10:32:20Z</time>
      </trkpt>
      <trkpt lat="44.81675" lon="4.43754">
        <ele>802</ele>
        <time>2014-11-13T10:32:30Z</time>
      </trkpt>
      <trkpt lat="44.81671" lon="4.43761">
        <ele>802</ele>
        <time>2014-11-13T10:32:45Z</time>
      </trkpt>
      <trkpt lat="44.81667" lon="4.43768">
        <ele>807</ele>
        <time>2014-11-13T10:33:00Z</time>
      </trkpt>
      <trkpt lat="44.81662" lon="4.43777">
        <ele>807</ele>
        <time>2014-11-13T10:33:15Z</time>
      </trkpt>
      <trkpt lat="44.8166" lon="4.43783">
        <ele>807</ele>
        <time>2014-11-13T10:33:25Z</time>
      </trkpt>
      <trkpt lat="44.81659" lon="4.43791">
        <ele>807</ele>
        <time>2014-11-13T10:33:40Z</time>
      </trkpt>
      <trkpt lat="44.8165" lon="4.43784">
        <ele>814</ele>
        <time>2014-11-13T10:33:55Z</time>
      </trkpt>
      <trkpt lat="44.81641" lon="4.43778">
        <ele>814</ele>
        <time>2014-11-13T10:34:10Z</time>
      </trkpt>
      <trkpt lat="44.81639" lon="4.43783">
        <ele>814</ele>
        <time>2014-11-13T10:34:20Z</time>
      </trkpt>
      <trkpt lat="44.81636" lon="4.43786">
        <ele>814</ele>
        <time>2014-11-13T10:34:35Z</time>
      </trkpt>
      <trkpt lat="44.81627" lon="4.4379">
        <ele>814</ele>
        <time>2014-11-13T10:34:50Z</time>
      </trkpt>
      <trkpt lat="44.81621" lon="4.43792">
        <ele>826</ele>
        <time>2014-11-13T10:35:00Z</time>
      </trkpt>
      <trkpt lat="44.8162" lon="4.43798">
        <ele>826</ele>
        <time>2014-11-13T10:35:15Z</time>
      </trkpt>
      <trkpt lat="44.81618" lon="4.438">
        <ele>826</ele>
        <time>2014-11-13T10:35:30Z</time>
      </trkpt>
      <trkpt lat="44.81615" lon="4.43806">
        <ele>826</ele>
        <time>2014-11-13T10:35:45Z</time>
      </trkpt>
      <trkpt lat="44.81611" lon="4.43814">
        <ele>826</ele>
        <time>2014-11-13T10:35:55Z</time>
      </trkpt>
      <trkpt lat="44.81602" lon="4.43813">
        <ele>826</ele>
        <time>2014-11-13T10:36:10Z</time>
      </trkpt>
      <trkpt lat="44.81594" lon="4.4381">
        <ele>830</ele>
        <time>2014-11-13T10:36:25Z</time>
      </trkpt>
      <trkpt lat="44.8159" lon="4.43812">
        <ele>830</ele>
        <time>2014-11-13T10:36:40Z</time>
      </trkpt>
      <trkpt lat="44.81586" lon="4.43815">
        <ele>830</ele>
        <time>2014-11-13T10:40:35Z</time>
      </trkpt>
      <trkpt lat="44.81584" lon="4.43814">
        <ele>830</ele>
        <time>2014-11-13T10:41:05Z</time>
      </trkpt>
      <trkpt lat="44.81576" lon="4.43817">
        <ele>830</ele>
        <time>2014-11-13T10:41:15Z</time>
      </trkpt>
      <trkpt lat="44.81567" lon="4.4382">
        <ele>844</ele>
        <time>2014-11-13T10:41:30Z</time>
      </trkpt>
      <trkpt lat="44.81558" lon="4.43826">
        <ele>844</ele>
        <time>2014-11-13T10:41:45Z</time>
      </trkpt>
      <trkpt lat="44.81553" lon="4.43833">
        <ele>844</ele>
        <time>2014-11-13T10:42:00Z</time>
      </trkpt>
      <trkpt lat="44.81549" lon="4.43834">
        <ele>844</ele>
        <time>2014-11-13T10:42:10Z</time>
      </trkpt>
      <trkpt lat="44.81543" lon="4.43837">
        <ele>844</ele>
        <time>2014-11-13T10:42:25Z</time>
      </trkpt>
      <trkpt lat="44.81538" lon="4.4384">
        <ele>849</ele>
        <time>2014-11-13T10:42:40Z</time>
      </trkpt>
      <trkpt lat="44.81536" lon="4.4384">
        <ele>849</ele>
        <time>2014-11-13T10:43:00Z</time>
      </trkpt>
      <trkpt lat="44.81538" lon="4.43844">
        <ele>849</ele>
        <time>2014-11-13T10:43:10Z</time>
      </trkpt>
      <trkpt lat="44.8154" lon="4.43841">
        <ele>849</ele>
        <time>2014-11-13T10:43:25Z</time>
      </trkpt>
      <trkpt lat="44.81534" lon="4.43844">
        <ele>849</ele>
        <time>2014-11-13T10:43:40Z</time>
      </trkpt>
      <trkpt lat="44.81527" lon="4.43849">
        <ele>859</ele>
        <time>2014-11-13T10:43:50Z</time>
      </trkpt>
      <trkpt lat="44.81524" lon="4.43855">
        <ele>859</ele>
        <time>2014-11-13T10:44:05Z</time>
      </trkpt>
      <trkpt lat="44.81519" lon="4.43854">
        <ele>859</ele>
        <time>2014-11-13T10:44:35Z</time>
      </trkpt>
      <trkpt lat="44.81508" lon="4.43855">
        <ele>863</ele>
        <time>2014-11-13T10:44:50Z</time>
      </trkpt>
      <trkpt lat="44.815" lon="4.43856">
        <ele>863</ele>
        <time>2014-11-13T10:45:00Z</time>
      </trkpt>
      <trkpt lat="44.81493" lon="4.43856">
        <ele>863</ele>
        <time>2014-11-13T10:45:15Z</time>
      </trkpt>
      <trkpt lat="44.81484" lon="4.43859">
        <ele>867</ele>
        <time>2014-11-13T10:45:30Z</time>
      </trkpt>
      <trkpt lat="44.81474" lon="4.43858">
        <ele>867</ele>
        <time>2014-11-13T10:45:45Z</time>
      </trkpt>
      <trkpt lat="44.81466" lon="4.43858">
        <ele>867</ele>
        <time>2014-11-13T10:45:55Z</time>
      </trkpt>
      <trkpt lat="44.81457" lon="4.43858">
        <ele>872</ele>
        <time>2014-11-13T10:46:10Z</time>
      </trkpt>
      <trkpt lat="44.81448" lon="4.43861">
        <ele>872</ele>
        <time>2014-11-13T10:46:25Z</time>
      </trkpt>
      <trkpt lat="44.81445" lon="4.43862">
        <ele>872</ele>
        <time>2014-11-13T10:46:35Z</time>
      </trkpt>
      <trkpt lat="44.81442" lon="4.4386">
        <ele>867.9</ele>
        <time>2014-11-13T10:46:50Z</time>
      </trkpt>
      <trkpt lat="44.81437" lon="4.43863">
        <ele>872</ele>
        <time>2014-11-13T10:47:10Z</time>
      </trkpt>
      <trkpt lat="44.81428" lon="4.43867">
        <ele>876</ele>
        <time>2014-11-13T10:47:25Z</time>
      </trkpt>
      <trkpt lat="44.8142" lon="4.4387">
        <ele>876</ele>
        <time>2014-11-13T10:47:35Z</time>
      </trkpt>
      <trkpt lat="44.81411" lon="4.43874">
        <ele>876</ele>
        <time>2014-11-13T10:47:50Z</time>
      </trkpt>
      <trkpt lat="44.81405" lon="4.43881">
        <ele>883</ele>
        <time>2014-11-13T10:48:05Z</time>
      </trkpt>
      <trkpt lat="44.81397" lon="4.43889">
        <ele>886</ele>
        <time>2014-11-13T10:48:20Z</time>
      </trkpt>
      <trkpt lat="44.81395" lon="4.43892">
        <ele>886</ele>
        <time>2014-11-13T10:48:30Z</time>
      </trkpt>
      <trkpt lat="44.81387" lon="4.43901">
        <ele>886</ele>
        <time>2014-11-13T10:48:45Z</time>
      </trkpt>
      <trkpt lat="44.81378" lon="4.43902">
        <ele>886</ele>
        <time>2014-11-13T10:49:00Z</time>
      </trkpt>
      <trkpt lat="44.81375" lon="4.43897">
        <ele>886</ele>
        <time>2014-11-13T10:49:10Z</time>
      </trkpt>
      <trkpt lat="44.81369" lon="4.43893">
        <ele>890</ele>
        <time>2014-11-13T10:49:25Z</time>
      </trkpt>
      <trkpt lat="44.81358" lon="4.43879">
        <ele>890</ele>
        <time>2014-11-13T10:49:40Z</time>
      </trkpt>
      <trkpt lat="44.81346" lon="4.43865">
        <ele>891</ele>
        <time>2014-11-13T10:49:55Z</time>
      </trkpt>
      <trkpt lat="44.81342" lon="4.43856">
        <ele>891</ele>
        <time>2014-11-13T10:50:05Z</time>
      </trkpt>
      <trkpt lat="44.81335" lon="4.43845">
        <ele>888</ele>
        <time>2014-11-13T10:50:20Z</time>
      </trkpt>
      <trkpt lat="44.81326" lon="4.43831">
        <ele>888</ele>
        <time>2014-11-13T10:50:35Z</time>
      </trkpt>
      <trkpt lat="44.81322" lon="4.43823">
        <ele>888</ele>
        <time>2014-11-13T10:50:50Z</time>
      </trkpt>
      <trkpt lat="44.81317" lon="4.43816">
        <ele>898</ele>
        <time>2014-11-13T10:51:00Z</time>
      </trkpt>
      <trkpt lat="44.81307" lon="4.43805">
        <ele>898</ele>
        <time>2014-11-13T10:51:15Z</time>
      </trkpt>
      <trkpt lat="44.81307" lon="4.438">
        <ele>898</ele>
        <time>2014-11-13T10:51:30Z</time>
      </trkpt>
      <trkpt lat="44.81303" lon="4.43802">
        <ele>898</ele>
        <time>2014-11-13T10:51:50Z</time>
      </trkpt>
      <trkpt lat="44.81296" lon="4.43796">
        <ele>898</ele>
        <time>2014-11-13T10:52:00Z</time>
      </trkpt>
      <trkpt lat="44.81292" lon="4.43782">
        <ele>906</ele>
        <time>2014-11-13T10:52:15Z</time>
      </trkpt>
      <trkpt lat="44.81285" lon="4.43769">
        <ele>906</ele>
        <time>2014-11-13T10:52:30Z</time>
      </trkpt>
      <trkpt lat="44.8128" lon="4.43759">
        <ele>902</ele>
        <time>2014-11-13T10:52:40Z</time>
      </trkpt>
      <trkpt lat="44.81276" lon="4.43752">
        <ele>902</ele>
        <time>2014-11-13T10:52:55Z</time>
      </trkpt>
      <trkpt lat="44.81272" lon="4.4374">
        <ele>902</ele>
        <time>2014-11-13T10:53:10Z</time>
      </trkpt>
      <trkpt lat="44.81262" lon="4.43723">
        <ele>910</ele>
        <time>2014-11-13T10:53:25Z</time>
      </trkpt>
      <trkpt lat="44.8126" lon="4.43721">
        <ele>910</ele>
        <time>2014-11-13T10:53:35Z</time>
      </trkpt>
      <trkpt lat="44.81257" lon="4.4371">
        <ele>910</ele>
        <time>2014-11-13T10:53:55Z</time>
      </trkpt>
      <trkpt lat="44.8125" lon="4.43691">
        <ele>904</ele>
        <time>2014-11-13T10:54:20Z</time>
      </trkpt>
      <trkpt lat="44.81242" lon="4.43678">
        <ele>900</ele>
        <time>2014-11-13T10:54:35Z</time>
      </trkpt>
      <trkpt lat="44.81238" lon="4.43669">
        <ele>900</ele>
        <time>2014-11-13T10:54:45Z</time>
      </trkpt>
      <trkpt lat="44.81239" lon="4.4365">
        <ele>902</ele>
        <time>2014-11-13T10:55:00Z</time>
      </trkpt>
      <trkpt lat="44.81242" lon="4.4364">
        <ele>902</ele>
        <time>2014-11-13T10:55:15Z</time>
      </trkpt>
      <trkpt lat="44.81244" lon="4.43632">
        <ele>902</ele>
        <time>2014-11-13T10:55:25Z</time>
      </trkpt>
      <trkpt lat="44.81246" lon="4.43616">
        <ele>908</ele>
        <time>2014-11-13T10:55:40Z</time>
      </trkpt>
      <trkpt lat="44.8125" lon="4.436">
        <ele>908</ele>
        <time>2014-11-13T10:55:55Z</time>
      </trkpt>
      <trkpt lat="44.81256" lon="4.43578">
        <ele>915</ele>
        <time>2014-11-13T10:56:10Z</time>
      </trkpt>
      <trkpt lat="44.81263" lon="4.43564">
        <ele>922</ele>
        <time>2014-11-13T10:56:20Z</time>
      </trkpt>
      <trkpt lat="44.81272" lon="4.43551">
        <ele>907</ele>
        <time>2014-11-13T10:56:35Z</time>
      </trkpt>
      <trkpt lat="44.81277" lon="4.43535">
        <ele>915</ele>
        <time>2014-11-13T10:56:50Z</time>
      </trkpt>
      <trkpt lat="44.81274" lon="4.4352">
        <ele>915</ele>
        <time>2014-11-13T10:57:05Z</time>
      </trkpt>
      <trkpt lat="44.81273" lon="4.43508">
        <ele>921</ele>
        <time>2014-11-13T10:57:15Z</time>
      </trkpt>
      <trkpt lat="44.8127" lon="4.4351">
        <ele>921</ele>
        <time>2014-11-13T10:57:30Z</time>
      </trkpt>
      <trkpt lat="44.81269" lon="4.43512">
        <ele>921</ele>
        <time>2014-11-13T10:57:45Z</time>
      </trkpt>
      <trkpt lat="44.81265" lon="4.43516">
        <ele>915</ele>
        <time>2014-11-13T10:57:55Z</time>
      </trkpt>
      <trkpt lat="44.81259" lon="4.43523">
        <ele>925</ele>
        <time>2014-11-13T10:58:15Z</time>
      </trkpt>
      <trkpt lat="44.81256" lon="4.43525">
        <ele>925</ele>
        <time>2014-11-13T10:58:30Z</time>
      </trkpt>
      <trkpt lat="44.81248" lon="4.43536">
        <ele>925</ele>
        <time>2014-11-13T10:59:05Z</time>
      </trkpt>
      <trkpt lat="44.81243" lon="4.4354">
        <ele>925</ele>
        <time>2014-11-13T10:59:15Z</time>
      </trkpt>
      <trkpt lat="44.81232" lon="4.43554">
        <ele>933</ele>
        <time>2014-11-13T10:59:30Z</time>
      </trkpt>
      <trkpt lat="44.81217" lon="4.43566">
        <ele>933</ele>
        <time>2014-11-13T10:59:45Z</time>
      </trkpt>
      <trkpt lat="44.81208" lon="4.43573">
        <ele>941</ele>
        <time>2014-11-13T11:00:00Z</time>
      </trkpt>
      <trkpt lat="44.81206" lon="4.43574">
        <ele>941</ele>
        <time>2014-11-13T11:00:10Z</time>
      </trkpt>
      <trkpt lat="44.81197" lon="4.43584">
        <ele>941</ele>
        <time>2014-11-13T11:00:30Z</time>
      </trkpt>
      <trkpt lat="44.81191" lon="4.43589">
        <ele>941</ele>
        <time>2014-11-13T11:00:45Z</time>
      </trkpt>
      <trkpt lat="44.81181" lon="4.43592">
        <ele>941</ele>
        <time>2014-11-13T11:01:00Z</time>
      </trkpt>
      <trkpt lat="44.81178" lon="4.43594">
        <ele>950</ele>
        <time>2014-11-13T11:01:10Z</time>
      </trkpt>
      <trkpt lat="44.81173" lon="4.43595">
        <ele>950</ele>
        <time>2014-11-13T11:01:25Z</time>
      </trkpt>
      <trkpt lat="44.81166" lon="4.43597">
        <ele>950</ele>
        <time>2014-11-13T11:01:40Z</time>
      </trkpt>
      <trkpt lat="44.8116" lon="4.436">
        <ele>946</ele>
        <time>2014-11-13T11:01:50Z</time>
      </trkpt>
      <trkpt lat="44.8115" lon="4.43604">
        <ele>953</ele>
        <time>2014-11-13T11:02:05Z</time>
      </trkpt>
      <trkpt lat="44.81146" lon="4.43607">
        <ele>953</ele>
        <time>2014-11-13T11:02:20Z</time>
      </trkpt>
      <trkpt lat="44.81138" lon="4.43603">
        <ele>953</ele>
        <time>2014-11-13T11:02:50Z</time>
      </trkpt>
      <trkpt lat="44.81137" lon="4.43603">
        <ele>953</ele>
        <time>2014-11-13T11:03:25Z</time>
      </trkpt>
      <trkpt lat="44.81129" lon="4.43607">
        <ele>953</ele>
        <time>2014-11-13T11:03:45Z</time>
      </trkpt>
      <trkpt lat="44.81124" lon="4.43608">
        <ele>962</ele>
        <time>2014-11-13T11:04:00Z</time>
      </trkpt>
      <trkpt lat="44.81115" lon="4.43609">
        <ele>962</ele>
        <time>2014-11-13T11:04:15Z</time>
      </trkpt>
      <trkpt lat="44.81108" lon="4.43607">
        <ele>962</ele>
        <time>2014-11-13T11:04:25Z</time>
      </trkpt>
      <trkpt lat="44.811" lon="4.43607">
        <ele>962</ele>
        <time>2014-11-13T11:04:40Z</time>
      </trkpt>
      <trkpt lat="44.81095" lon="4.43611">
        <ele>969</ele>
        <time>2014-11-13T11:04:55Z</time>
      </trkpt>
      <trkpt lat="44.81092" lon="4.43609">
        <ele>969</ele>
        <time>2014-11-13T11:05:05Z</time>
      </trkpt>
      <trkpt lat="44.81092" lon="4.43606">
        <ele>969</ele>
        <time>2014-11-13T11:05:20Z</time>
      </trkpt>
      <trkpt lat="44.81086" lon="4.43598">
        <ele>969</ele>
        <time>2014-11-13T11:05:35Z</time>
      </trkpt>
      <trkpt lat="44.81078" lon="4.43596">
        <ele>970</ele>
        <time>2014-11-13T11:05:50Z</time>
      </trkpt>
      <trkpt lat="44.81072" lon="4.43594">
        <ele>970</ele>
        <time>2014-11-13T11:06:00Z</time>
      </trkpt>
      <trkpt lat="44.81064" lon="4.43592">
        <ele>973</ele>
        <time>2014-11-13T11:06:15Z</time>
      </trkpt>
      <trkpt lat="44.81056" lon="4.43589">
        <ele>973</ele>
        <time>2014-11-13T11:06:30Z</time>
      </trkpt>
      <trkpt lat="44.81053" lon="4.43583">
        <ele>973</ele>
        <time>2014-11-13T11:06:45Z</time>
      </trkpt>
      <trkpt lat="44.81047" lon="4.43583">
        <ele>973</ele>
        <time>2014-11-13T11:06:55Z</time>
      </trkpt>
      <trkpt lat="44.81039" lon="4.4358">
        <ele>973</ele>
        <time>2014-11-13T11:07:10Z</time>
      </trkpt>
      <trkpt lat="44.81035" lon="4.43581">
        <ele>973</ele>
        <time>2014-11-13T11:07:25Z</time>
      </trkpt>
      <trkpt lat="44.81033" lon="4.4358">
        <ele>973</ele>
        <time>2014-11-13T11:08:00Z</time>
      </trkpt>
      <trkpt lat="44.81025" lon="4.43572">
        <ele>973</ele>
        <time>2014-11-13T11:08:15Z</time>
      </trkpt>
      <trkpt lat="44.81017" lon="4.43578">
        <ele>973</ele>
        <time>2014-11-13T11:08:30Z</time>
      </trkpt>
      <trkpt lat="44.81012" lon="4.43579">
        <ele>969</ele>
        <time>2014-11-13T11:09:15Z</time>
      </trkpt>
      <trkpt lat="44.8101" lon="4.43579">
        <ele>969</ele>
        <time>2014-11-13T11:10:00Z</time>
      </trkpt>
      <trkpt lat="44.81009" lon="4.43579">
        <ele>969</ele>
        <time>2014-11-13T11:10:20Z</time>
      </trkpt>
      <trkpt lat="44.81007" lon="4.43578">
        <ele>969</ele>
        <time>2014-11-13T11:11:25Z</time>
      </trkpt>
      <trkpt lat="44.81009" lon="4.43579">
        <ele>969</ele>
        <time>2014-11-13T11:11:40Z</time>
      </trkpt>
      <trkpt lat="44.81007" lon="4.43578">
        <ele>969</ele>
        <time>2014-11-13T11:11:50Z</time>
      </trkpt>
      <trkpt lat="44.81003" lon="4.43571">
        <ele>969</ele>
        <time>2014-11-13T11:12:30Z</time>
      </trkpt>
      <trkpt lat="44.81" lon="4.43567">
        <ele>976</ele>
        <time>2014-11-13T11:13:05Z</time>
      </trkpt>
      <trkpt lat="44.80998" lon="4.43568">
        <ele>976</ele>
        <time>2014-11-13T11:13:55Z</time>
      </trkpt>
      <trkpt lat="44.80997" lon="4.43568">
        <ele>975.8</ele>
        <time>2014-11-13T11:14:05Z</time>
      </trkpt>
      <trkpt lat="44.80994" lon="4.43569">
        <ele>976</ele>
        <time>2014-11-13T11:14:20Z</time>
      </trkpt>
      <trkpt lat="44.80992" lon="4.43561">
        <ele>976</ele>
        <time>2014-11-13T11:14:35Z</time>
      </trkpt>
      <trkpt lat="44.80991" lon="4.43553">
        <ele>976</ele>
        <time>2014-11-13T11:14:45Z</time>
      </trkpt>
      <trkpt lat="44.80989" lon="4.43541">
        <ele>981</ele>
        <time>2014-11-13T11:15:00Z</time>
      </trkpt>
      <trkpt lat="44.80984" lon="4.43528">
        <ele>983</ele>
        <time>2014-11-13T11:15:15Z</time>
      </trkpt>
      <trkpt lat="44.8098" lon="4.43514">
        <ele>983</ele>
        <time>2014-11-13T11:15:30Z</time>
      </trkpt>
      <trkpt lat="44.80979" lon="4.43503">
        <ele>987</ele>
        <time>2014-11-13T11:15:40Z</time>
      </trkpt>
      <trkpt lat="44.80976" lon="4.43491">
        <ele>987</ele>
        <time>2014-11-13T11:15:55Z</time>
      </trkpt>
      <trkpt lat="44.80974" lon="4.43478">
        <ele>990</ele>
        <time>2014-11-13T11:16:10Z</time>
      </trkpt>
      <trkpt lat="44.8097" lon="4.43466">
        <ele>990</ele>
        <time>2014-11-13T11:16:25Z</time>
      </trkpt>
      <trkpt lat="44.80967" lon="4.43457">
        <ele>992</ele>
        <time>2014-11-13T11:16:35Z</time>
      </trkpt>
      <trkpt lat="44.80964" lon="4.43441">
        <ele>992</ele>
        <time>2014-11-13T11:16:50Z</time>
      </trkpt>
      <trkpt lat="44.80958" lon="4.43429">
        <ele>994</ele>
        <time>2014-11-13T11:17:05Z</time>
      </trkpt>
      <trkpt lat="44.80953" lon="4.43419">
        <ele>994</ele>
        <time>2014-11-13T11:17:15Z</time>
      </trkpt>
      <trkpt lat="44.80944" lon="4.43408">
        <ele>994</ele>
        <time>2014-11-13T11:17:30Z</time>
      </trkpt>
      <trkpt lat="44.80935" lon="4.43399">
        <ele>997</ele>
        <time>2014-11-13T11:17:45Z</time>
      </trkpt>
      <trkpt lat="44.80922" lon="4.43387">
        <ele>991</ele>
        <time>2014-11-13T11:24:50Z</time>
      </trkpt>
      <trkpt lat="44.80915" lon="4.43376">
        <ele>991</ele>
        <time>2014-11-13T11:25:05Z</time>
      </trkpt>
      <trkpt lat="44.80912" lon="4.43366">
        <ele>993</ele>
        <time>2014-11-13T11:25:15Z</time>
      </trkpt>
      <trkpt lat="44.80908" lon="4.43357">
        <ele>993</ele>
        <time>2014-11-13T11:25:30Z</time>
      </trkpt>
      <trkpt lat="44.80907" lon="4.43336">
        <ele>994</ele>
        <time>2014-11-13T11:25:45Z</time>
      </trkpt>
      <trkpt lat="44.80907" lon="4.43325">
        <ele>994</ele>
        <time>2014-11-13T11:26:10Z</time>
      </trkpt>
      <trkpt lat="44.80911" lon="4.43313">
        <ele>995</ele>
        <time>2014-11-13T11:26:25Z</time>
      </trkpt>
      <trkpt lat="44.80912" lon="4.43296">
        <ele>995</ele>
        <time>2014-11-13T11:26:40Z</time>
      </trkpt>
      <trkpt lat="44.80909" lon="4.43279">
        <ele>995</ele>
        <time>2014-11-13T11:26:50Z</time>
      </trkpt>
      <trkpt lat="44.80908" lon="4.43256">
        <ele>998</ele>
        <time>2014-11-13T11:27:05Z</time>
      </trkpt>
      <trkpt lat="44.80904" lon="4.43233">
        <ele>1001</ele>
        <time>2014-11-13T11:27:20Z</time>
      </trkpt>
      <trkpt lat="44.80894" lon="4.43219">
        <ele>997</ele>
        <time>2014-11-13T11:27:35Z</time>
      </trkpt>
      <trkpt lat="44.80894" lon="4.43208">
        <ele>999</ele>
        <time>2014-11-13T11:27:45Z</time>
      </trkpt>
      <trkpt lat="44.8089" lon="4.43187">
        <ele>999</ele>
        <time>2014-11-13T11:28:00Z</time>
      </trkpt>
      <trkpt lat="44.80881" lon="4.43166">
        <ele>1000</ele>
        <time>2014-11-13T11:28:15Z</time>
      </trkpt>
      <trkpt lat="44.80878" lon="4.43149">
        <ele>1002</ele>
        <time>2014-11-13T11:28:30Z</time>
      </trkpt>
      <trkpt lat="44.80876" lon="4.43137">
        <ele>1002</ele>
        <time>2014-11-13T11:28:40Z</time>
      </trkpt>
      <trkpt lat="44.80877" lon="4.4312">
        <ele>1003</ele>
        <time>2014-11-13T11:28:55Z</time>
      </trkpt>
      <trkpt lat="44.80878" lon="4.43103">
        <ele>1003</ele>
        <time>2014-11-13T11:29:10Z</time>
      </trkpt>
      <trkpt lat="44.80875" lon="4.43091">
        <ele>1005</ele>
        <time>2014-11-13T11:29:20Z</time>
      </trkpt>
      <trkpt lat="44.80869" lon="4.43076">
        <ele>999</ele>
        <time>2014-11-13T11:29:35Z</time>
      </trkpt>
      <trkpt lat="44.80863" lon="4.43065">
        <ele>1002</ele>
        <time>2014-11-13T11:29:50Z</time>
      </trkpt>
      <trkpt lat="44.80861" lon="4.43047">
        <ele>1002</ele>
        <time>2014-11-13T11:30:05Z</time>
      </trkpt>
      <trkpt lat="44.80861" lon="4.43033">
        <ele>1005</ele>
        <time>2014-11-13T11:30:15Z</time>
      </trkpt>
      <trkpt lat="44.80851" lon="4.43019">
        <ele>1005</ele>
        <time>2014-11-13T11:30:30Z</time>
      </trkpt>
      <trkpt lat="44.80836" lon="4.4301">
        <ele>1000</ele>
        <time>2014-11-13T11:30:45Z</time>
      </trkpt>
      <trkpt lat="44.80829" lon="4.43">
        <ele>1000</ele>
        <time>2014-11-13T11:31:00Z</time>
      </trkpt>
      <trkpt lat="44.80827" lon="4.43003">
        <ele>1000</ele>
        <time>2014-11-13T11:31:25Z</time>
      </trkpt>
      <trkpt lat="44.80816" lon="4.43002">
        <ele>997</ele>
        <time>2014-11-13T11:31:50Z</time>
      </trkpt>
      <trkpt lat="44.80805" lon="4.43002">
        <ele>997</ele>
        <time>2014-11-13T11:32:05Z</time>
      </trkpt>
      <trkpt lat="44.80796" lon="4.42999">
        <ele>997</ele>
        <time>2014-11-13T11:32:15Z</time>
      </trkpt>
      <trkpt lat="44.80781" lon="4.42998">
        <ele>995</ele>
        <time>2014-11-13T11:32:30Z</time>
      </trkpt>
      <trkpt lat="44.8077" lon="4.42993">
        <ele>995</ele>
        <time>2014-11-13T11:32:45Z</time>
      </trkpt>
      <trkpt lat="44.80767" lon="4.42992">
        <ele>995</ele>
        <time>2014-11-13T11:32:55Z</time>
      </trkpt>
      <trkpt lat="44.80758" lon="4.42979">
        <ele>996</ele>
        <time>2014-11-13T11:33:10Z</time>
      </trkpt>
      <trkpt lat="44.80753" lon="4.42967">
        <ele>996</ele>
        <time>2014-11-13T11:33:25Z</time>
      </trkpt>
      <trkpt lat="44.80741" lon="4.42958">
        <ele>1002</ele>
        <time>2014-11-13T11:33:40Z</time>
      </trkpt>
      <trkpt lat="44.80733" lon="4.42951">
        <ele>1002</ele>
        <time>2014-11-13T11:33:50Z</time>
      </trkpt>
      <trkpt lat="44.80721" lon="4.42941">
        <ele>1002</ele>
        <time>2014-11-13T11:34:05Z</time>
      </trkpt>
      <trkpt lat="44.8071" lon="4.42927">
        <ele>1007</ele>
        <time>2014-11-13T11:34:20Z</time>
      </trkpt>
      <trkpt lat="44.80697" lon="4.42914">
        <ele>1005</ele>
        <time>2014-11-13T11:34:35Z</time>
      </trkpt>
      <trkpt lat="44.8069" lon="4.42908">
        <ele>1005</ele>
        <time>2014-11-13T11:34:45Z</time>
      </trkpt>
      <trkpt lat="44.80678" lon="4.42896">
        <ele>1011</ele>
        <time>2014-11-13T11:35:00Z</time>
      </trkpt>
      <trkpt lat="44.8067" lon="4.42883">
        <ele>1011</ele>
        <time>2014-11-13T11:35:15Z</time>
      </trkpt>
      <trkpt lat="44.80668" lon="4.42872">
        <ele>1016</ele>
        <time>2014-11-13T11:35:25Z</time>
      </trkpt>
      <trkpt lat="44.80671" lon="4.42856">
        <ele>1016</ele>
        <time>2014-11-13T11:35:40Z</time>
      </trkpt>
      <trkpt lat="44.80673" lon="4.42837">
        <ele>1018</ele>
        <time>2014-11-13T11:35:55Z</time>
      </trkpt>
      <trkpt lat="44.80666" lon="4.42821">
        <ele>1018</ele>
        <time>2014-11-13T11:36:10Z</time>
      </trkpt>
      <trkpt lat="44.80657" lon="4.42815">
        <ele>1018</ele>
        <time>2014-11-13T11:36:20Z</time>
      </trkpt>
      <trkpt lat="44.80645" lon="4.42802">
        <ele>1018</ele>
        <time>2014-11-13T11:36:35Z</time>
      </trkpt>
      <trkpt lat="44.80633" lon="4.42794">
        <ele>1018</ele>
        <time>2014-11-13T11:36:50Z</time>
      </trkpt>
      <trkpt lat="44.80623" lon="4.4279">
        <ele>1018</ele>
        <time>2014-11-13T11:37:30Z</time>
      </trkpt>
      <trkpt lat="44.80622" lon="4.42784">
        <ele>1018</ele>
        <time>2014-11-13T11:38:15Z</time>
      </trkpt>
      <trkpt lat="44.8062" lon="4.42782">
        <ele>1018</ele>
        <time>2014-11-13T11:39:25Z</time>
      </trkpt>
      <trkpt lat="44.8062" lon="4.42761">
        <ele>1019</ele>
        <time>2014-11-13T11:40:30Z</time>
      </trkpt>
      <trkpt lat="44.8062" lon="4.42752">
        <ele>1019</ele>
        <time>2014-11-13T11:40:40Z</time>
      </trkpt>
      <trkpt lat="44.80623" lon="4.42751">
        <ele>1019</ele>
        <time>2014-11-13T11:40:55Z</time>
      </trkpt>
      <trkpt lat="44.80627" lon="4.42734">
        <ele>1015</ele>
        <time>2014-11-13T11:41:10Z</time>
      </trkpt>
      <trkpt lat="44.80624" lon="4.42725">
        <ele>1018</ele>
        <time>2014-11-13T11:41:25Z</time>
      </trkpt>
      <trkpt lat="44.80624" lon="4.42724">
        <ele>1018</ele>
        <time>2014-11-13T11:41:35Z</time>
      </trkpt>
      <trkpt lat="44.80623" lon="4.42708">
        <ele>1014</ele>
        <time>2014-11-13T11:41:50Z</time>
      </trkpt>
      <trkpt lat="44.80621" lon="4.42686">
        <ele>1014</ele>
        <time>2014-11-13T11:42:05Z</time>
      </trkpt>
      <trkpt lat="44.8062" lon="4.42661">
        <ele>1013</ele>
        <time>2014-11-13T11:42:20Z</time>
      </trkpt>
      <trkpt lat="44.8062" lon="4.42643">
        <ele>1015</ele>
        <time>2014-11-13T11:42:30Z</time>
      </trkpt>
      <trkpt lat="44.80622" lon="4.42614">
        <ele>1017</ele>
        <time>2014-11-13T11:42:45Z</time>
      </trkpt>
      <trkpt lat="44.80621" lon="4.42588">
        <ele>1018</ele>
        <time>2014-11-13T11:43:00Z</time>
      </trkpt>
      <trkpt lat="44.80619" lon="4.42559">
        <ele>1017</ele>
        <time>2014-11-13T11:43:15Z</time>
      </trkpt>
      <trkpt lat="44.8062" lon="4.42541">
        <ele>1018</ele>
        <time>2014-11-13T11:43:25Z</time>
      </trkpt>
      <trkpt lat="44.80619" lon="4.42514">
        <ele>1018</ele>
        <time>2014-11-13T11:43:40Z</time>
      </trkpt>
      <trkpt lat="44.8062" lon="4.42487">
        <ele>1018</ele>
        <time>2014-11-13T11:43:55Z</time>
      </trkpt>
      <trkpt lat="44.80623" lon="4.4247">
        <ele>1018</ele>
        <time>2014-11-13T11:44:05Z</time>
      </trkpt>
      <trkpt lat="44.80626" lon="4.42444">
        <ele>1010</ele>
        <time>2014-11-13T11:44:20Z</time>
      </trkpt>
      <trkpt lat="44.80628" lon="4.42423">
        <ele>1010</ele>
        <time>2014-11-13T11:44:35Z</time>
      </trkpt>
      <trkpt lat="44.8063" lon="4.42406">
        <ele>1010</ele>
        <time>2014-11-13T11:44:50Z</time>
      </trkpt>
      <trkpt lat="44.80634" lon="4.42391">
        <ele>1009</ele>
        <time>2014-11-13T11:45:00Z</time>
      </trkpt>
      <trkpt lat="44.80639" lon="4.42371">
        <ele>1013</ele>
        <time>2014-11-13T11:45:15Z</time>
      </trkpt>
      <trkpt lat="44.80646" lon="4.4235">
        <ele>1013</ele>
        <time>2014-11-13T11:45:30Z</time>
      </trkpt>
      <trkpt lat="44.80653" lon="4.4233">
        <ele>1009</ele>
        <time>2014-11-13T11:45:45Z</time>
      </trkpt>
      <trkpt lat="44.80657" lon="4.42318">
        <ele>1013</ele>
        <time>2014-11-13T11:45:55Z</time>
      </trkpt>
      <trkpt lat="44.80663" lon="4.42297">
        <ele>1013</ele>
        <time>2014-11-13T11:46:10Z</time>
      </trkpt>
      <trkpt lat="44.80663" lon="4.42273">
        <ele>1016</ele>
        <time>2014-11-13T11:46:25Z</time>
      </trkpt>
      <trkpt lat="44.8066" lon="4.42258">
        <ele>1016</ele>
        <time>2014-11-13T11:46:35Z</time>
      </trkpt>
      <trkpt lat="44.80655" lon="4.42233">
        <ele>1012</ele>
        <time>2014-11-13T11:46:50Z</time>
      </trkpt>
      <trkpt lat="44.80651" lon="4.42208">
        <ele>1018</ele>
        <time>2014-11-13T11:47:05Z</time>
      </trkpt>
      <trkpt lat="44.80644" lon="4.42185">
        <ele>1018</ele>
        <time>2014-11-13T11:47:20Z</time>
      </trkpt>
      <trkpt lat="44.8064" lon="4.42172">
        <ele>1015</ele>
        <time>2014-11-13T11:47:30Z</time>
      </trkpt>
      <trkpt lat="44.8064" lon="4.42149">
        <ele>1013</ele>
        <time>2014-11-13T11:47:45Z</time>
      </trkpt>
      <trkpt lat="44.80636" lon="4.42125">
        <ele>1011</ele>
        <time>2014-11-13T11:48:00Z</time>
      </trkpt>
      <trkpt lat="44.80636" lon="4.42102">
        <ele>1011</ele>
        <time>2014-11-13T11:48:15Z</time>
      </trkpt>
      <trkpt lat="44.80639" lon="4.42084">
        <ele>1011</ele>
        <time>2014-11-13T11:48:25Z</time>
      </trkpt>
      <trkpt lat="44.80644" lon="4.42058">
        <ele>1011</ele>
        <time>2014-11-13T11:48:40Z</time>
      </trkpt>
      <trkpt lat="44.80648" lon="4.42036">
        <ele>1010</ele>
        <time>2014-11-13T11:48:55Z</time>
      </trkpt>
      <trkpt lat="44.80642" lon="4.42023">
        <ele>1010</ele>
        <time>2014-11-13T11:49:05Z</time>
      </trkpt>
      <trkpt lat="44.80634" lon="4.42002">
        <ele>1009</ele>
        <time>2014-11-13T11:49:20Z</time>
      </trkpt>
      <trkpt lat="44.80625" lon="4.41984">
        <ele>1018</ele>
        <time>2014-11-13T11:49:35Z</time>
      </trkpt>
      <trkpt lat="44.80617" lon="4.41964">
        <ele>1018</ele>
        <time>2014-11-13T11:49:50Z</time>
      </trkpt>
      <trkpt lat="44.80611" lon="4.41951">
        <ele>1019</ele>
        <time>2014-11-13T11:50:00Z</time>
      </trkpt>
      <trkpt lat="44.80602" lon="4.41931">
        <ele>1019</ele>
        <time>2014-11-13T11:50:15Z</time>
      </trkpt>
      <trkpt lat="44.80592" lon="4.41911">
        <ele>1024</ele>
        <time>2014-11-13T11:50:30Z</time>
      </trkpt>
      <trkpt lat="44.80584" lon="4.41891">
        <ele>1019</ele>
        <time>2014-11-13T11:50:45Z</time>
      </trkpt>
      <trkpt lat="44.80577" lon="4.41879">
        <ele>1019</ele>
        <time>2014-11-13T11:50:55Z</time>
      </trkpt>
      <trkpt lat="44.80566" lon="4.41859">
        <ele>1027</ele>
        <time>2014-11-13T11:51:10Z</time>
      </trkpt>
      <trkpt lat="44.80559" lon="4.41841">
        <ele>1027</ele>
        <time>2014-11-13T11:51:25Z</time>
      </trkpt>
      <trkpt lat="44.80549" lon="4.41823">
        <ele>1027</ele>
        <time>2014-11-13T11:51:40Z</time>
      </trkpt>
      <trkpt lat="44.80545" lon="4.41814">
        <ele>1029</ele>
        <time>2014-11-13T11:51:50Z</time>
      </trkpt>
      <trkpt lat="44.80534" lon="4.41802">
        <ele>1033</ele>
        <time>2014-11-13T11:52:05Z</time>
      </trkpt>
      <trkpt lat="44.80531" lon="4.41796">
        <ele>1033</ele>
        <time>2014-11-13T11:52:20Z</time>
      </trkpt>
      <trkpt lat="44.80531" lon="4.41797">
        <ele>1033</ele>
        <time>2014-11-13T11:52:35Z</time>
      </trkpt>
      <trkpt lat="44.80532" lon="4.41793">
        <ele>1033</ele>
        <time>2014-11-13T11:52:50Z</time>
      </trkpt>
      <trkpt lat="44.8053" lon="4.41793">
        <ele>1033</ele>
        <time>2014-11-13T11:53:10Z</time>
      </trkpt>
      <trkpt lat="44.8053" lon="4.4179">
        <ele>1031</ele>
        <time>2014-11-13T11:53:30Z</time>
      </trkpt>
      <trkpt lat="44.80529" lon="4.41792">
        <ele>1033</ele>
        <time>2014-11-13T11:53:50Z</time>
      </trkpt>
      <trkpt lat="44.80528" lon="4.41797">
        <ele>1033</ele>
        <time>2014-11-13T11:54:15Z</time>
      </trkpt>
      <trkpt lat="44.80529" lon="4.41813">
        <ele>1033</ele>
        <time>2014-11-13T11:54:30Z</time>
      </trkpt>
      <trkpt lat="44.80527" lon="4.41807">
        <ele>1033</ele>
        <time>2014-11-13T11:54:45Z</time>
      </trkpt>
      <trkpt lat="44.80528" lon="4.41808">
        <ele>1033</ele>
        <time>2014-11-13T11:55:00Z</time>
      </trkpt>
      <trkpt lat="44.80528" lon="4.4182">
        <ele>1034</ele>
        <time>2014-11-13T11:55:15Z</time>
      </trkpt>
      <trkpt lat="44.80525" lon="4.41842">
        <ele>1034</ele>
        <time>2014-11-13T11:55:30Z</time>
      </trkpt>
      <trkpt lat="44.8052" lon="4.41854">
        <ele>1033</ele>
        <time>2014-11-13T11:55:40Z</time>
      </trkpt>
      <trkpt lat="44.80511" lon="4.41869">
        <ele>1034</ele>
        <time>2014-11-13T11:55:55Z</time>
      </trkpt>
      <trkpt lat="44.80499" lon="4.41881">
        <ele>1037</ele>
        <time>2014-11-13T11:56:10Z</time>
      </trkpt>
      <trkpt lat="44.80491" lon="4.41888">
        <ele>1037</ele>
        <time>2014-11-13T11:56:25Z</time>
      </trkpt>
      <trkpt lat="44.80491" lon="4.41891">
        <ele>1037</ele>
        <time>2014-11-13T11:56:40Z</time>
      </trkpt>
      <trkpt lat="44.80481" lon="4.41904">
        <ele>1047</ele>
        <time>2014-11-13T11:56:55Z</time>
      </trkpt>
      <trkpt lat="44.80474" lon="4.41909">
        <ele>1047</ele>
        <time>2014-11-13T11:57:10Z</time>
      </trkpt>
      <trkpt lat="44.8047" lon="4.41919">
        <ele>1047</ele>
        <time>2014-11-13T11:57:25Z</time>
      </trkpt>
      <trkpt lat="44.80465" lon="4.41918">
        <ele>1047</ele>
        <time>2014-11-13T11:57:35Z</time>
      </trkpt>
      <trkpt lat="44.80464" lon="4.41913">
        <ele>1047</ele>
        <time>2014-11-13T11:57:55Z</time>
      </trkpt>
      <trkpt lat="44.80462" lon="4.4191">
        <ele>1047</ele>
        <time>2014-11-13T11:58:15Z</time>
      </trkpt>
      <trkpt lat="44.80461" lon="4.41912">
        <ele>1047</ele>
        <time>2014-11-13T11:58:50Z</time>
      </trkpt>
      <trkpt lat="44.80463" lon="4.41917">
        <ele>1047</ele>
        <time>2014-11-13T11:59:05Z</time>
      </trkpt>
      <trkpt lat="44.80476" lon="4.41919">
        <ele>1047</ele>
        <time>2014-11-13T12:40:26Z</time>
      </trkpt>
      <trkpt lat="44.8048" lon="4.41916">
        <ele>1047</ele>
        <time>2014-11-13T12:40:36Z</time>
      </trkpt>
      <trkpt lat="44.80485" lon="4.41904">
        <ele>1047</ele>
        <time>2014-11-13T12:40:51Z</time>
      </trkpt>
      <trkpt lat="44.80489" lon="4.41896">
        <ele>1037</ele>
        <time>2014-11-13T12:41:06Z</time>
      </trkpt>
      <trkpt lat="44.80497" lon="4.41878">
        <ele>1037</ele>
        <time>2014-11-13T12:41:21Z</time>
      </trkpt>
      <trkpt lat="44.80506" lon="4.41874">
        <ele>1034</ele>
        <time>2014-11-13T12:41:31Z</time>
      </trkpt>
      <trkpt lat="44.80517" lon="4.41864">
        <ele>1033</ele>
        <time>2014-11-13T12:41:46Z</time>
      </trkpt>
      <trkpt lat="44.80524" lon="4.41849">
        <ele>1033</ele>
        <time>2014-11-13T12:42:01Z</time>
      </trkpt>
      <trkpt lat="44.80529" lon="4.41838">
        <ele>1034</ele>
        <time>2014-11-13T12:42:11Z</time>
      </trkpt>
      <trkpt lat="44.80532" lon="4.41822">
        <ele>1034</ele>
        <time>2014-11-13T12:42:26Z</time>
      </trkpt>
      <trkpt lat="44.80528" lon="4.41803">
        <ele>1033</ele>
        <time>2014-11-13T12:42:41Z</time>
      </trkpt>
      <trkpt lat="44.80519" lon="4.41791">
        <ele>1031</ele>
        <time>2014-11-13T12:42:56Z</time>
      </trkpt>
      <trkpt lat="44.80509" lon="4.41788">
        <ele>1028</ele>
        <time>2014-11-13T12:43:06Z</time>
      </trkpt>
      <trkpt lat="44.80493" lon="4.41787">
        <ele>1028</ele>
        <time>2014-11-13T12:43:21Z</time>
      </trkpt>
      <trkpt lat="44.80477" lon="4.41782">
        <ele>1025</ele>
        <time>2014-11-13T12:43:36Z</time>
      </trkpt>
      <trkpt lat="44.80464" lon="4.41764">
        <ele>1025</ele>
        <time>2014-11-13T12:43:51Z</time>
      </trkpt>
      <trkpt lat="44.80461" lon="4.41746">
        <ele>1023</ele>
        <time>2014-11-13T12:44:01Z</time>
      </trkpt>
      <trkpt lat="44.80459" lon="4.41725">
        <ele>1024</ele>
        <time>2014-11-13T12:44:16Z</time>
      </trkpt>
      <trkpt lat="44.80456" lon="4.41708">
        <ele>1019</ele>
        <time>2014-11-13T12:44:31Z</time>
      </trkpt>
      <trkpt lat="44.8045" lon="4.41689">
        <ele>1019</ele>
        <time>2014-11-13T12:44:46Z</time>
      </trkpt>
      <trkpt lat="44.80445" lon="4.41676">
        <ele>1020</ele>
        <time>2014-11-13T12:44:56Z</time>
      </trkpt>
      <trkpt lat="44.80434" lon="4.41658">
        <ele>1020</ele>
        <time>2014-11-13T12:45:11Z</time>
      </trkpt>
      <trkpt lat="44.80423" lon="4.41637">
        <ele>1014</ele>
        <time>2014-11-13T12:45:26Z</time>
      </trkpt>
      <trkpt lat="44.80419" lon="4.41626">
        <ele>1014</ele>
        <time>2014-11-13T12:45:36Z</time>
      </trkpt>
      <trkpt lat="44.80422" lon="4.41601">
        <ele>1012</ele>
        <time>2014-11-13T12:45:51Z</time>
      </trkpt>
      <trkpt lat="44.8043" lon="4.41581">
        <ele>1009</ele>
        <time>2014-11-13T12:46:06Z</time>
      </trkpt>
      <trkpt lat="44.80415" lon="4.41581">
        <ele>1009</ele>
        <time>2014-11-13T12:46:21Z</time>
      </trkpt>
      <trkpt lat="44.804" lon="4.41579">
        <ele>1007</ele>
        <time>2014-11-13T12:46:31Z</time>
      </trkpt>
      <trkpt lat="44.80382" lon="4.41573">
        <ele>1007</ele>
        <time>2014-11-13T12:46:46Z</time>
      </trkpt>
      <trkpt lat="44.80363" lon="4.41574">
        <ele>999</ele>
        <time>2014-11-13T12:47:01Z</time>
      </trkpt>
      <trkpt lat="44.80346" lon="4.41572">
        <ele>991</ele>
        <time>2014-11-13T12:47:16Z</time>
      </trkpt>
      <trkpt lat="44.80332" lon="4.41571">
        <ele>991</ele>
        <time>2014-11-13T12:47:26Z</time>
      </trkpt>
      <trkpt lat="44.80314" lon="4.41563">
        <ele>989</ele>
        <time>2014-11-13T12:47:41Z</time>
      </trkpt>
      <trkpt lat="44.803" lon="4.41542">
        <ele>989</ele>
        <time>2014-11-13T12:47:56Z</time>
      </trkpt>
      <trkpt lat="44.80292" lon="4.41528">
        <ele>991</ele>
        <time>2014-11-13T12:48:06Z</time>
      </trkpt>
      <trkpt lat="44.80279" lon="4.41505">
        <ele>996</ele>
        <time>2014-11-13T12:48:21Z</time>
      </trkpt>
      <trkpt lat="44.80268" lon="4.41486">
        <ele>995</ele>
        <time>2014-11-13T12:48:36Z</time>
      </trkpt>
      <trkpt lat="44.80257" lon="4.41463">
        <ele>997</ele>
        <time>2014-11-13T12:48:51Z</time>
      </trkpt>
      <trkpt lat="44.80246" lon="4.41457">
        <ele>993</ele>
        <time>2014-11-13T12:49:01Z</time>
      </trkpt>
      <trkpt lat="44.8023" lon="4.41455">
        <ele>995</ele>
        <time>2014-11-13T12:49:16Z</time>
      </trkpt>
      <trkpt lat="44.80211" lon="4.41458">
        <ele>995</ele>
        <time>2014-11-13T12:49:31Z</time>
      </trkpt>
      <trkpt lat="44.80196" lon="4.41466">
        <ele>994</ele>
        <time>2014-11-13T12:49:46Z</time>
      </trkpt>
      <trkpt lat="44.80194" lon="4.41464">
        <ele>994</ele>
        <time>2014-11-13T12:50:06Z</time>
      </trkpt>
      <trkpt lat="44.80193" lon="4.41463">
        <ele>994</ele>
        <time>2014-11-13T12:50:31Z</time>
      </trkpt>
      <trkpt lat="44.80194" lon="4.41462">
        <ele>994</ele>
        <time>2014-11-13T12:50:46Z</time>
      </trkpt>
      <trkpt lat="44.80192" lon="4.41463">
        <ele>994</ele>
        <time>2014-11-13T12:51:01Z</time>
      </trkpt>
      <trkpt lat="44.80197" lon="4.41465">
        <ele>994</ele>
        <time>2014-11-13T12:51:16Z</time>
      </trkpt>
      <trkpt lat="44.80192" lon="4.41465">
        <ele>994</ele>
        <time>2014-11-13T12:51:31Z</time>
      </trkpt>
      <trkpt lat="44.80187" lon="4.41461">
        <ele>994</ele>
        <time>2014-11-13T12:51:46Z</time>
      </trkpt>
      <trkpt lat="44.80189" lon="4.41446">
        <ele>994</ele>
        <time>2014-11-13T12:51:56Z</time>
      </trkpt>
      <trkpt lat="44.80178" lon="4.41443">
        <ele>996</ele>
        <time>2014-11-13T12:52:11Z</time>
      </trkpt>
      <trkpt lat="44.80168" lon="4.41438">
        <ele>996</ele>
        <time>2014-11-13T12:52:26Z</time>
      </trkpt>
      <trkpt lat="44.80164" lon="4.41426">
        <ele>997</ele>
        <time>2014-11-13T12:52:41Z</time>
      </trkpt>
      <trkpt lat="44.8016" lon="4.41418">
        <ele>997</ele>
        <time>2014-11-13T12:52:51Z</time>
      </trkpt>
      <trkpt lat="44.80156" lon="4.41403">
        <ele>998</ele>
        <time>2014-11-13T12:53:06Z</time>
      </trkpt>
      <trkpt lat="44.80151" lon="4.41389">
        <ele>1007</ele>
        <time>2014-11-13T12:53:21Z</time>
      </trkpt>
      <trkpt lat="44.80149" lon="4.41371">
        <ele>1009</ele>
        <time>2014-11-13T12:53:36Z</time>
      </trkpt>
      <trkpt lat="44.80147" lon="4.41358">
        <ele>1009</ele>
        <time>2014-11-13T12:53:46Z</time>
      </trkpt>
      <trkpt lat="44.80147" lon="4.41356">
        <ele>1009</ele>
        <time>2014-11-13T12:54:01Z</time>
      </trkpt>
      <trkpt lat="44.80145" lon="4.41349">
        <ele>1009</ele>
        <time>2014-11-13T12:54:16Z</time>
      </trkpt>
      <trkpt lat="44.80141" lon="4.4134">
        <ele>1010</ele>
        <time>2014-11-13T12:54:26Z</time>
      </trkpt>
      <trkpt lat="44.80136" lon="4.4133">
        <ele>1010</ele>
        <time>2014-11-13T12:54:41Z</time>
      </trkpt>
      <trkpt lat="44.80131" lon="4.41319">
        <ele>1011</ele>
        <time>2014-11-13T12:54:56Z</time>
      </trkpt>
      <trkpt lat="44.80124" lon="4.4131">
        <ele>1021</ele>
        <time>2014-11-13T12:55:11Z</time>
      </trkpt>
      <trkpt lat="44.80122" lon="4.41307">
        <ele>1021</ele>
        <time>2014-11-13T12:55:21Z</time>
      </trkpt>
      <trkpt lat="44.8012" lon="4.41311">
        <ele>1021</ele>
        <time>2014-11-13T12:55:41Z</time>
      </trkpt>
      <trkpt lat="44.80109" lon="4.41312">
        <ele>1021</ele>
        <time>2014-11-13T12:55:56Z</time>
      </trkpt>
      <trkpt lat="44.80104" lon="4.41318">
        <ele>1021</ele>
        <time>2014-11-13T12:56:11Z</time>
      </trkpt>
      <trkpt lat="44.80102" lon="4.41321">
        <ele>1019</ele>
        <time>2014-11-13T12:56:21Z</time>
      </trkpt>
      <trkpt lat="44.80094" lon="4.41329">
        <ele>1028</ele>
        <time>2014-11-13T12:56:36Z</time>
      </trkpt>
      <trkpt lat="44.80089" lon="4.41328">
        <ele>1028</ele>
        <time>2014-11-13T12:56:51Z</time>
      </trkpt>
      <trkpt lat="44.80081" lon="4.41329">
        <ele>1028</ele>
        <time>2014-11-13T12:57:01Z</time>
      </trkpt>
      <trkpt lat="44.80073" lon="4.41322">
        <ele>1028</ele>
        <time>2014-11-13T12:57:16Z</time>
      </trkpt>
      <trkpt lat="44.80062" lon="4.41313">
        <ele>1039</ele>
        <time>2014-11-13T12:57:31Z</time>
      </trkpt>
      <trkpt lat="44.80054" lon="4.41305">
        <ele>1039</ele>
        <time>2014-11-13T12:57:46Z</time>
      </trkpt>
      <trkpt lat="44.80046" lon="4.41298">
        <ele>1039</ele>
        <time>2014-11-13T12:57:56Z</time>
      </trkpt>
      <trkpt lat="44.80037" lon="4.41289">
        <ele>1041</ele>
        <time>2014-11-13T12:58:11Z</time>
      </trkpt>
      <trkpt lat="44.80025" lon="4.41289">
        <ele>1041</ele>
        <time>2014-11-13T12:58:26Z</time>
      </trkpt>
      <trkpt lat="44.80024" lon="4.41286">
        <ele>1041</ele>
        <time>2014-11-13T12:58:46Z</time>
      </trkpt>
      <trkpt lat="44.80022" lon="4.41288">
        <ele>1041</ele>
        <time>2014-11-13T12:58:56Z</time>
      </trkpt>
      <trkpt lat="44.80024" lon="4.41285">
        <ele>1041</ele>
        <time>2014-11-13T12:59:11Z</time>
      </trkpt>
      <trkpt lat="44.80021" lon="4.41275">
        <ele>1041</ele>
        <time>2014-11-13T12:59:26Z</time>
      </trkpt>
      <trkpt lat="44.80016" lon="4.41264">
        <ele>1041</ele>
        <time>2014-11-13T12:59:36Z</time>
      </trkpt>
      <trkpt lat="44.8001" lon="4.41243">
        <ele>1041</ele>
        <time>2014-11-13T12:59:51Z</time>
      </trkpt>
      <trkpt lat="44.80001" lon="4.41226">
        <ele>1042</ele>
        <time>2014-11-13T13:00:06Z</time>
      </trkpt>
      <trkpt lat="44.79987" lon="4.41224">
        <ele>1042</ele>
        <time>2014-11-13T13:00:21Z</time>
      </trkpt>
      <trkpt lat="44.79978" lon="4.41213">
        <ele>1042</ele>
        <time>2014-11-13T13:00:31Z</time>
      </trkpt>
      <trkpt lat="44.7997" lon="4.41191">
        <ele>1044</ele>
        <time>2014-11-13T13:00:46Z</time>
      </trkpt>
      <trkpt lat="44.79965" lon="4.41173">
        <ele>1043</ele>
        <time>2014-11-13T13:01:01Z</time>
      </trkpt>
      <trkpt lat="44.79959" lon="4.41151">
        <ele>1041</ele>
        <time>2014-11-13T13:01:16Z</time>
      </trkpt>
      <trkpt lat="44.79954" lon="4.41138">
        <ele>1047</ele>
        <time>2014-11-13T13:01:26Z</time>
      </trkpt>
      <trkpt lat="44.79952" lon="4.41125">
        <ele>1045</ele>
        <time>2014-11-13T13:01:41Z</time>
      </trkpt>
      <trkpt lat="44.79951" lon="4.4111">
        <ele>1045</ele>
        <time>2014-11-13T13:01:56Z</time>
      </trkpt>
      <trkpt lat="44.7995" lon="4.41095">
        <ele>1044</ele>
        <time>2014-11-13T13:02:06Z</time>
      </trkpt>
      <trkpt lat="44.79939" lon="4.41082">
        <ele>1044</ele>
        <time>2014-11-13T13:02:21Z</time>
      </trkpt>
      <trkpt lat="44.79929" lon="4.41071">
        <ele>1050</ele>
        <time>2014-11-13T13:02:36Z</time>
      </trkpt>
      <trkpt lat="44.79918" lon="4.41061">
        <ele>1048</ele>
        <time>2014-11-13T13:02:51Z</time>
      </trkpt>
      <trkpt lat="44.7991" lon="4.41055">
        <ele>1048</ele>
        <time>2014-11-13T13:03:01Z</time>
      </trkpt>
      <trkpt lat="44.79901" lon="4.41035">
        <ele>1052</ele>
        <time>2014-11-13T13:03:16Z</time>
      </trkpt>
      <trkpt lat="44.79896" lon="4.41018">
        <ele>1052</ele>
        <time>2014-11-13T13:03:31Z</time>
      </trkpt>
      <trkpt lat="44.79888" lon="4.40996">
        <ele>1051</ele>
        <time>2014-11-13T13:03:46Z</time>
      </trkpt>
      <trkpt lat="44.79883" lon="4.40986">
        <ele>1052</ele>
        <time>2014-11-13T13:03:56Z</time>
      </trkpt>
      <trkpt lat="44.79872" lon="4.40978">
        <ele>1057</ele>
        <time>2014-11-13T13:04:11Z</time>
      </trkpt>
      <trkpt lat="44.79866" lon="4.40975">
        <ele>1057</ele>
        <time>2014-11-13T13:04:26Z</time>
      </trkpt>
      <trkpt lat="44.79851" lon="4.40971">
        <ele>1057</ele>
        <time>2014-11-13T13:04:41Z</time>
      </trkpt>
      <trkpt lat="44.79838" lon="4.40968">
        <ele>1062</ele>
        <time>2014-11-13T13:04:51Z</time>
      </trkpt>
      <trkpt lat="44.79824" lon="4.40969">
        <ele>1062</ele>
        <time>2014-11-13T13:05:06Z</time>
      </trkpt>
      <trkpt lat="44.79813" lon="4.4097">
        <ele>1062</ele>
        <time>2014-11-13T13:05:21Z</time>
      </trkpt>
      <trkpt lat="44.79803" lon="4.40975">
        <ele>1062</ele>
        <time>2014-11-13T13:05:31Z</time>
      </trkpt>
      <trkpt lat="44.79786" lon="4.40977">
        <ele>1063</ele>
        <time>2014-11-13T13:05:46Z</time>
      </trkpt>
      <trkpt lat="44.79772" lon="4.40987">
        <ele>1065</ele>
        <time>2014-11-13T13:06:01Z</time>
      </trkpt>
      <trkpt lat="44.79756" lon="4.40985">
        <ele>1064</ele>
        <time>2014-11-13T13:06:16Z</time>
      </trkpt>
      <trkpt lat="44.79744" lon="4.40985">
        <ele>1064</ele>
        <time>2014-11-13T13:06:26Z</time>
      </trkpt>
      <trkpt lat="44.79726" lon="4.40985">
        <ele>1066</ele>
        <time>2014-11-13T13:06:41Z</time>
      </trkpt>
      <trkpt lat="44.79712" lon="4.40987">
        <ele>1067</ele>
        <time>2014-11-13T13:06:56Z</time>
      </trkpt>
      <trkpt lat="44.79693" lon="4.40992">
        <ele>1066</ele>
        <time>2014-11-13T13:07:11Z</time>
      </trkpt>
      <trkpt lat="44.79683" lon="4.40989">
        <ele>1066</ele>
        <time>2014-11-13T13:07:21Z</time>
      </trkpt>
      <trkpt lat="44.79667" lon="4.40987">
        <ele>1066</ele>
        <time>2014-11-13T13:07:36Z</time>
      </trkpt>
      <trkpt lat="44.79654" lon="4.40979">
        <ele>1065</ele>
        <time>2014-11-13T13:07:51Z</time>
      </trkpt>
      <trkpt lat="44.79642" lon="4.40975">
        <ele>1066</ele>
        <time>2014-11-13T13:08:01Z</time>
      </trkpt>
      <trkpt lat="44.79628" lon="4.4097">
        <ele>1066</ele>
        <time>2014-11-13T13:08:16Z</time>
      </trkpt>
      <trkpt lat="44.79617" lon="4.40963">
        <ele>1069</ele>
        <time>2014-11-13T13:08:31Z</time>
      </trkpt>
      <trkpt lat="44.79602" lon="4.40958">
        <ele>1069</ele>
        <time>2014-11-13T13:08:46Z</time>
      </trkpt>
      <trkpt lat="44.79594" lon="4.40956">
        <ele>1077</ele>
        <time>2014-11-13T13:08:56Z</time>
      </trkpt>
      <trkpt lat="44.79581" lon="4.40956">
        <ele>1077</ele>
        <time>2014-11-13T13:09:11Z</time>
      </trkpt>
      <trkpt lat="44.79573" lon="4.40952">
        <ele>1077</ele>
        <time>2014-11-13T13:09:26Z</time>
      </trkpt>
      <trkpt lat="44.79572" lon="4.4095">
        <ele>1077</ele>
        <time>2014-11-13T13:09:41Z</time>
      </trkpt>
      <trkpt lat="44.79572" lon="4.40948">
        <ele>1077</ele>
        <time>2014-11-13T13:09:51Z</time>
      </trkpt>
      <trkpt lat="44.79571" lon="4.40948">
        <ele>1077</ele>
        <time>2014-11-13T13:10:06Z</time>
      </trkpt>
      <trkpt lat="44.79567" lon="4.40945">
        <ele>1083</ele>
        <time>2014-11-13T13:10:31Z</time>
      </trkpt>
      <trkpt lat="44.79559" lon="4.40944">
        <ele>1083</ele>
        <time>2014-11-13T13:10:41Z</time>
      </trkpt>
      <trkpt lat="44.79553" lon="4.40942">
        <ele>1083</ele>
        <time>2014-11-13T13:10:56Z</time>
      </trkpt>
      <trkpt lat="44.79546" lon="4.40942">
        <ele>1083</ele>
        <time>2014-11-13T13:11:11Z</time>
      </trkpt>
      <trkpt lat="44.79538" lon="4.40941">
        <ele>1089</ele>
        <time>2014-11-13T13:11:26Z</time>
      </trkpt>
      <trkpt lat="44.79531" lon="4.40937">
        <ele>1089</ele>
        <time>2014-11-13T13:11:36Z</time>
      </trkpt>
      <trkpt lat="44.79522" lon="4.40927">
        <ele>1088</ele>
        <time>2014-11-13T13:11:51Z</time>
      </trkpt>
      <trkpt lat="44.79517" lon="4.40918">
        <ele>1088</ele>
        <time>2014-11-13T13:12:06Z</time>
      </trkpt>
      <trkpt lat="44.79508" lon="4.40911">
        <ele>1093</ele>
        <time>2014-11-13T13:12:21Z</time>
      </trkpt>
      <trkpt lat="44.795" lon="4.40903">
        <ele>1093</ele>
        <time>2014-11-13T13:12:31Z</time>
      </trkpt>
      <trkpt lat="44.79494" lon="4.40887">
        <ele>1094</ele>
        <time>2014-11-13T13:12:46Z</time>
      </trkpt>
      <trkpt lat="44.7949" lon="4.40871">
        <ele>1094</ele>
        <time>2014-11-13T13:13:01Z</time>
      </trkpt>
      <trkpt lat="44.79486" lon="4.40866">
        <ele>1098</ele>
        <time>2014-11-13T13:13:16Z</time>
      </trkpt>
      <trkpt lat="44.79482" lon="4.40861">
        <ele>1098</ele>
        <time>2014-11-13T13:13:26Z</time>
      </trkpt>
      <trkpt lat="44.79475" lon="4.40852">
        <ele>1098</ele>
        <time>2014-11-13T13:13:41Z</time>
      </trkpt>
      <trkpt lat="44.79468" lon="4.40836">
        <ele>1097</ele>
        <time>2014-11-13T13:13:56Z</time>
      </trkpt>
      <trkpt lat="44.79466" lon="4.40823">
        <ele>1097</ele>
        <time>2014-11-13T13:14:06Z</time>
      </trkpt>
      <trkpt lat="44.79464" lon="4.40802">
        <ele>1099</ele>
        <time>2014-11-13T13:14:21Z</time>
      </trkpt>
      <trkpt lat="44.79458" lon="4.40783">
        <ele>1103</ele>
        <time>2014-11-13T13:14:36Z</time>
      </trkpt>
      <trkpt lat="44.79454" lon="4.40765">
        <ele>1103</ele>
        <time>2014-11-13T13:14:51Z</time>
      </trkpt>
      <trkpt lat="44.79452" lon="4.40748">
        <ele>1104</ele>
        <time>2014-11-13T13:15:01Z</time>
      </trkpt>
      <trkpt lat="44.79454" lon="4.40731">
        <ele>1106</ele>
        <time>2014-11-13T13:15:16Z</time>
      </trkpt>
      <trkpt lat="44.79449" lon="4.4071">
        <ele>1106</ele>
        <time>2014-11-13T13:15:31Z</time>
      </trkpt>
      <trkpt lat="44.79446" lon="4.4069">
        <ele>1108</ele>
        <time>2014-11-13T13:15:46Z</time>
      </trkpt>
      <trkpt lat="44.79441" lon="4.40683">
        <ele>1108</ele>
        <time>2014-11-13T13:15:56Z</time>
      </trkpt>
      <trkpt lat="44.79434" lon="4.4067">
        <ele>1112</ele>
        <time>2014-11-13T13:16:11Z</time>
      </trkpt>
      <trkpt lat="44.79425" lon="4.40658">
        <ele>1110</ele>
        <time>2014-11-13T13:16:26Z</time>
      </trkpt>
      <trkpt lat="44.79421" lon="4.40649">
        <ele>1115</ele>
        <time>2014-11-13T13:16:36Z</time>
      </trkpt>
      <trkpt lat="44.79417" lon="4.40627">
        <ele>1115</ele>
        <time>2014-11-13T13:16:51Z</time>
      </trkpt>
      <trkpt lat="44.79412" lon="4.40609">
        <ele>1117</ele>
        <time>2014-11-13T13:17:06Z</time>
      </trkpt>
      <trkpt lat="44.79412" lon="4.40608">
        <ele>1113.9</ele>
      </trkpt>
      <trkpt lat="44.79412" lon="4.40607">
        <ele>1117</ele>
        <time>2014-11-13T13:17:26Z</time>
      </trkpt>
      <trkpt lat="44.79414" lon="4.40607">
        <ele>1117</ele>
        <time>2014-11-13T13:17:36Z</time>
      </trkpt>
      <trkpt lat="44.79414" lon="4.40595">
        <ele>1114.9</ele>
      </trkpt>
      <trkpt lat="44.79406" lon="4.40574">
        <ele>1112.9</ele>
      </trkpt>
      <trkpt lat="44.79403" lon="4.40545">
        <ele>1111.9</ele>
      </trkpt>
      <trkpt lat="44.79399" lon="4.40519">
        <ele>1110.9</ele>
      </trkpt>
      <trkpt lat="44.7939" lon="4.40481">
        <ele>1110.1</ele>
      </trkpt>
      <trkpt lat="44.79379" lon="4.40447">
        <ele>1108.2</ele>
      </trkpt>
      <trkpt lat="44.79363" lon="4.40412">
        <ele>1105</ele>
      </trkpt>
      <trkpt lat="44.79348" lon="4.40377">
        <ele>1104.3</ele>
      </trkpt>
      <trkpt lat="44.79327" lon="4.40371">
        <ele>1102.2</ele>
      </trkpt>
      <trkpt lat="44.793" lon="4.40358">
        <ele>1102.9</ele>
      </trkpt>
      <trkpt lat="44.79288" lon="4.40354">
        <ele>1101.9</ele>
      </trkpt>
      <trkpt lat="44.79261" lon="4.40355">
        <ele>1098.7</ele>
      </trkpt>
      <trkpt lat="44.79229" lon="4.40363">
        <ele>1093.9</ele>
      </trkpt>
      <trkpt lat="44.79204" lon="4.4036">
        <ele>1093.5</ele>
      </trkpt>
      <trkpt lat="44.79201" lon="4.40353">
        <ele>1093.8</ele>
      </trkpt>
      <trkpt lat="44.792" lon="4.40326">
        <ele>1095.6</ele>
      </trkpt>
      <trkpt lat="44.79195" lon="4.40295">
        <ele>1097.2</ele>
      </trkpt>
      <trkpt lat="44.79189" lon="4.40226">
        <ele>1101.8</ele>
      </trkpt>
      <trkpt lat="44.79186" lon="4.40198">
        <ele>1103.1</ele>
      </trkpt>
      <trkpt lat="44.79179" lon="4.40157">
        <ele>1105.4</ele>
      </trkpt>
      <trkpt lat="44.7917" lon="4.40066">
        <ele>1108.5</ele>
      </trkpt>
      <trkpt lat="44.79158" lon="4.39945">
        <ele>1114.2</ele>
      </trkpt>
      <trkpt lat="44.79129" lon="4.39902">
        <ele>1116.8</ele>
      </trkpt>
      <trkpt lat="44.79109" lon="4.39842">
        <ele>1119.7</ele>
      </trkpt>
      <trkpt lat="44.79094" lon="4.39731">
        <ele>1125.5</ele>
      </trkpt>
      <trkpt lat="44.79074" lon="4.39683">
        <ele>1128.2</ele>
      </trkpt>
      <trkpt lat="44.79044" lon="4.39595">
        <ele>1133.1</ele>
      </trkpt>
      <trkpt lat="44.79008" lon="4.39517">
        <ele>1137.4</ele>
      </trkpt>
      <trkpt lat="44.78956" lon="4.39419">
        <ele>1143.4</ele>
      </trkpt>
      <trkpt lat="44.78923" lon="4.39375">
        <ele>1146.4</ele>
      </trkpt>
      <trkpt lat="44.78889" lon="4.39339">
        <ele>1148.6</ele>
      </trkpt>
      <trkpt lat="44.78872" lon="4.39332">
        <ele>1150.2</ele>
      </trkpt>
      <trkpt lat="44.78873" lon="4.39302">
        <ele>1149.2</ele>
      </trkpt>
      <trkpt lat="44.78879" lon="4.39258">
        <ele>1145.3</ele>
      </trkpt>
      <trkpt lat="44.78894" lon="4.39211">
        <ele>1141.4</ele>
      </trkpt>
      <trkpt lat="44.7892" lon="4.39135">
        <ele>1135.4</ele>
      </trkpt>
      <trkpt lat="44.78944" lon="4.3906">
        <ele>1128.7</ele>
      </trkpt>
      <trkpt lat="44.78956" lon="4.39006">
        <ele>1123.3</ele>
      </trkpt>
      <trkpt lat="44.78977" lon="4.3896">
        <ele>1121</ele>
      </trkpt>
      <trkpt lat="44.78981" lon="4.38938">
        <ele>1118.6</ele>
      </trkpt>
      <trkpt lat="44.7897" lon="4.38952">
        <ele>1117.2</ele>
      </trkpt>
      <trkpt lat="44.78963" lon="4.38946">
        <ele>1113.3</ele>
      </trkpt>
      <trkpt lat="44.78988" lon="4.38793">
        <ele>1105</ele>
      </trkpt>
      <trkpt lat="44.78999" lon="4.38684">
        <ele>1091.9</ele>
      </trkpt>
      <trkpt lat="44.79083" lon="4.38512">
        <ele>1061.2</ele>
      </trkpt>
      <trkpt lat="44.79135" lon="4.38468">
        <ele>1051.9</ele>
      </trkpt>
      <trkpt lat="44.79188" lon="4.38453">
        <ele>1042.4</ele>
      </trkpt>
      <trkpt lat="44.79242" lon="4.38464">
        <ele>1027.5</ele>
      </trkpt>
      <trkpt lat="44.79268" lon="4.38478">
        <ele>1016.7</ele>
      </trkpt>
      <trkpt lat="44.79359" lon="4.38451">
        <ele>982.6</ele>
      </trkpt>
      <trkpt lat="44.79406" lon="4.38465">
        <ele>959.1</ele>
      </trkpt>
      <trkpt lat="44.79477" lon="4.38436">
        <ele>935</ele>
      </trkpt>
      <trkpt lat="44.79502" lon="4.38434">
        <ele>925.1</ele>
      </trkpt>
      <trkpt lat="44.79532" lon="4.38458">
        <ele>914.1</ele>
      </trkpt>
      <trkpt lat="44.79585" lon="4.38426">
        <ele>900.3</ele>
      </trkpt>
      <trkpt lat="44.79607" lon="4.38451">
        <ele>899.2</ele>
      </trkpt>
      <trkpt lat="44.79657" lon="4.3852">
        <ele>892.2</ele>
      </trkpt>
      <trkpt lat="44.79698" lon="4.38574">
        <ele>890.4</ele>
      </trkpt>
      <trkpt lat="44.7971" lon="4.38602">
        <ele>890.7</ele>
      </trkpt>
      <trkpt lat="44.79726" lon="4.38615">
        <ele>890.3</ele>
      </trkpt>
      <trkpt lat="44.79778" lon="4.38646">
        <ele>887.5</ele>
      </trkpt>
      <trkpt lat="44.79807" lon="4.38682">
        <ele>885.8</ele>
      </trkpt>
      <trkpt lat="44.79833" lon="4.38704">
        <ele>882.8</ele>
      </trkpt>
      <trkpt lat="44.79848" lon="4.3873">
        <ele>880.9</ele>
      </trkpt>
      <trkpt lat="44.79854" lon="4.38767">
        <ele>879.1</ele>
      </trkpt>
      <trkpt lat="44.79861" lon="4.38778">
        <ele>877.1</ele>
      </trkpt>
      <trkpt lat="44.79865" lon="4.38778">
        <ele>876.1</ele>
      </trkpt>
      <trkpt lat="44.79866" lon="4.38772">
        <ele>875.5</ele>
      </trkpt>
      <trkpt lat="44.79868" lon="4.38735">
        <ele>873.6</ele>
      </trkpt>
      <trkpt lat="44.79867" lon="4.38692">
        <ele>870.1</ele>
      </trkpt>
      <trkpt lat="44.79859" lon="4.3866">
        <ele>866.9</ele>
      </trkpt>
      <trkpt lat="44.79846" lon="4.3861">
        <ele>864.3</ele>
      </trkpt>
      <trkpt lat="44.79829" lon="4.38551">
        <ele>863.2</ele>
      </trkpt>
      <trkpt lat="44.79843" lon="4.38549">
        <ele>859.4</ele>
      </trkpt>
      <trkpt lat="44.79852" lon="4.38554">
        <ele>858.1</ele>
      </trkpt>
      <trkpt lat="44.79865" lon="4.38573">
        <ele>857.7</ele>
      </trkpt>
      <trkpt lat="44.79877" lon="4.38589">
        <ele>856.8</ele>
      </trkpt>
      <trkpt lat="44.79889" lon="4.38593">
        <ele>854.7</ele>
      </trkpt>
      <trkpt lat="44.79896" lon="4.38596">
        <ele>853.5</ele>
      </trkpt>
      <trkpt lat="44.79912" lon="4.386">
        <ele>850.7</ele>
      </trkpt>
      <trkpt lat="44.79939" lon="4.38612">
        <ele>845.4</ele>
      </trkpt>
      <trkpt lat="44.79942" lon="4.3864">
        <ele>844.5</ele>
      </trkpt>
      <trkpt lat="44.79957" lon="4.38651">
        <ele>844</ele>
      </trkpt>
      <trkpt lat="44.79964" lon="4.38652">
        <ele>844.5</ele>
      </trkpt>
      <trkpt lat="44.79972" lon="4.38661">
        <ele>844.4</ele>
      </trkpt>
      <trkpt lat="44.79982" lon="4.38675">
        <ele>843.2</ele>
      </trkpt>
      <trkpt lat="44.79996" lon="4.38688">
        <ele>841.7</ele>
      </trkpt>
      <trkpt lat="44.80013" lon="4.38696">
        <ele>840.5</ele>
      </trkpt>
      <trkpt lat="44.80036" lon="4.38706">
        <ele>839.8</ele>
      </trkpt>
      <trkpt lat="44.80051" lon="4.38718">
        <ele>838.7</ele>
      </trkpt>
      <trkpt lat="44.8007" lon="4.38724">
        <ele>838.3</ele>
      </trkpt>
      <trkpt lat="44.80091" lon="4.38748">
        <ele>837.2</ele>
      </trkpt>
      <trkpt lat="44.80102" lon="4.38771">
        <ele>834.4</ele>
      </trkpt>
      <trkpt lat="44.80138" lon="4.38851">
        <ele>823.9</ele>
      </trkpt>
      <trkpt lat="44.80176" lon="4.38899">
        <ele>822.6</ele>
      </trkpt>
      <trkpt lat="44.80219" lon="4.3895">
        <ele>817.9</ele>
      </trkpt>
      <trkpt lat="44.80275" lon="4.38973">
        <ele>815.9</ele>
      </trkpt>
      <trkpt lat="44.80354" lon="4.38995">
        <ele>805.2</ele>
      </trkpt>
      <trkpt lat="44.804" lon="4.39017">
        <ele>803.3</ele>
      </trkpt>
      <trkpt lat="44.80432" lon="4.39026">
        <ele>802.6</ele>
      </trkpt>
      <trkpt lat="44.80475" lon="4.39048">
        <ele>798.9</ele>
      </trkpt>
      <trkpt lat="44.80526" lon="4.39094">
        <ele>787.3</ele>
      </trkpt>
      <trkpt lat="44.80554" lon="4.39128">
        <ele>789.5</ele>
      </trkpt>
      <trkpt lat="44.80578" lon="4.39148">
        <ele>786.2</ele>
      </trkpt>
      <trkpt lat="44.80606" lon="4.39154">
        <ele>784.4</ele>
      </trkpt>
      <trkpt lat="44.80647" lon="4.39151">
        <ele>787.7</ele>
      </trkpt>
      <trkpt lat="44.80683" lon="4.39137">
        <ele>781.2</ele>
      </trkpt>
      <trkpt lat="44.80714" lon="4.39127">
        <ele>775.3</ele>
      </trkpt>
      <trkpt lat="44.80776" lon="4.39126">
        <ele>773.4</ele>
      </trkpt>
      <trkpt lat="44.80804" lon="4.39131">
        <ele>771.8</ele>
      </trkpt>
      <trkpt lat="44.80843" lon="4.39159">
        <ele>767.5</ele>
      </trkpt>
      <trkpt lat="44.80861" lon="4.39185">
        <ele>762</ele>
      </trkpt>
      <trkpt lat="44.80893" lon="4.39207">
        <ele>758.7</ele>
      </trkpt>
      <trkpt lat="44.80918" lon="4.39212">
        <ele>757.9</ele>
      </trkpt>
      <trkpt lat="44.80936" lon="4.39201">
        <ele>759.1</ele>
      </trkpt>
      <trkpt lat="44.80947" lon="4.39201">
        <ele>759.7</ele>
      </trkpt>
      <trkpt lat="44.80972" lon="4.39226">
        <ele>762.1</ele>
      </trkpt>
      <trkpt lat="44.80995" lon="4.39243">
        <ele>767.5</ele>
      </trkpt>
      <trkpt lat="44.8102" lon="4.39269">
        <ele>770.3</ele>
      </trkpt>
      <trkpt lat="44.81062" lon="4.39309">
        <ele>761.3</ele>
      </trkpt>
      <trkpt lat="44.81087" lon="4.39323">
        <ele>759.7</ele>
      </trkpt>
      <trkpt lat="44.8115" lon="4.39332">
        <ele>754.7</ele>
      </trkpt>
      <trkpt lat="44.81176" lon="4.39328">
        <ele>753</ele>
      </trkpt>
      <trkpt lat="44.81197" lon="4.39305">
        <ele>751</ele>
      </trkpt>
      <trkpt lat="44.81206" lon="4.39251">
        <ele>752.2</ele>
      </trkpt>
      <trkpt lat="44.81232" lon="4.39209">
        <ele>751.8</ele>
      </trkpt>
      <trkpt lat="44.81249" lon="4.39204">
        <ele>747.9</ele>
      </trkpt>
      <trkpt lat="44.81266" lon="4.39219">
        <ele>750</ele>
      </trkpt>
      <trkpt lat="44.81264" lon="4.39259">
        <ele>753.7</ele>
      </trkpt>
      <trkpt lat="44.81264" lon="4.39298">
        <ele>754.4</ele>
      </trkpt>
      <trkpt lat="44.81255" lon="4.39351">
        <ele>753.1</ele>
      </trkpt>
      <trkpt lat="44.81275" lon="4.39402">
        <ele>753.6</ele>
      </trkpt>
      <trkpt lat="44.8131" lon="4.39467">
        <ele>755.7</ele>
      </trkpt>
      <trkpt lat="44.81322" lon="4.39507">
        <ele>757.7</ele>
      </trkpt>
      <trkpt lat="44.81328" lon="4.39561">
        <ele>758.1</ele>
      </trkpt>
      <trkpt lat="44.81315" lon="4.39641">
        <ele>755.8</ele>
      </trkpt>
      <trkpt lat="44.81316" lon="4.39671">
        <ele>756.6</ele>
      </trkpt>
      <trkpt lat="44.81318" lon="4.39692">
        <ele>754.4</ele>
      </trkpt>
      <trkpt lat="44.81327" lon="4.39729">
        <ele>752.3</ele>
      </trkpt>
      <trkpt lat="44.81357" lon="4.39734">
        <ele>751.6</ele>
      </trkpt>
      <trkpt lat="44.8138" lon="4.39737">
        <ele>748.8</ele>
      </trkpt>
      <trkpt lat="44.814" lon="4.39748">
        <ele>749.7</ele>
      </trkpt>
      <trkpt lat="44.81413" lon="4.39802">
        <ele>748</ele>
      </trkpt>
      <trkpt lat="44.81434" lon="4.39844">
        <ele>744</ele>
      </trkpt>
      <trkpt lat="44.81469" lon="4.39886">
        <ele>741.4</ele>
      </trkpt>
      <trkpt lat="44.81501" lon="4.39918">
        <ele>737.7</ele>
      </trkpt>
      <trkpt lat="44.81517" lon="4.3993">
        <ele>738.5</ele>
      </trkpt>
      <trkpt lat="44.81521" lon="4.39941">
        <ele>739.9</ele>
      </trkpt>
      <trkpt lat="44.81525" lon="4.39957">
        <ele>741.4</ele>
      </trkpt>
      <trkpt lat="44.81543" lon="4.39984">
        <ele>746</ele>
      </trkpt>
      <trkpt lat="44.81564" lon="4.4">
        <ele>752</ele>
      </trkpt>
      <trkpt lat="44.81585" lon="4.40026">
        <ele>756.1</ele>
      </trkpt>
      <trkpt lat="44.81597" lon="4.40032">
        <ele>761.5</ele>
      </trkpt>
      <trkpt lat="44.81609" lon="4.40065">
        <ele>765.2</ele>
      </trkpt>
      <trkpt lat="44.81633" lon="4.40066">
        <ele>770.3</ele>
      </trkpt>
      <trkpt lat="44.81651" lon="4.40073">
        <ele>773</ele>
      </trkpt>
      <trkpt lat="44.81658" lon="4.40048">
        <ele>777.8</ele>
      </trkpt>
      <trkpt lat="44.81647" lon="4.4004">
        <ele>778.7</ele>
      </trkpt>
      <trkpt lat="44.81635" lon="4.40032">
        <ele>779.1</ele>
      </trkpt>
      <trkpt lat="44.81643" lon="4.40025">
        <ele>782.3</ele>
      </trkpt>
      <trkpt lat="44.81655" lon="4.40018">
        <ele>783.6</ele>
      </trkpt>
      <trkpt lat="44.81643" lon="4.40011">
        <ele>785.2</ele>
      </trkpt>
      <trkpt lat="44.81656" lon="4.40001">
        <ele>788.6</ele>
      </trkpt>
      <trkpt lat="44.81672" lon="4.39983">
        <ele>797</ele>
      </trkpt>
      <trkpt lat="44.8171" lon="4.39973">
        <ele>804</ele>
      </trkpt>
      <trkpt lat="44.81762" lon="4.39973">
        <ele>812.5</ele>
      </trkpt>
      <trkpt lat="44.81784" lon="4.39976">
        <ele>817.6</ele>
      </trkpt>
      <trkpt lat="44.81798" lon="4.39996">
        <ele>822.7</ele>
      </trkpt>
      <trkpt lat="44.81847" lon="4.39939">
        <ele>836.4</ele>
      </trkpt>
      <trkpt lat="44.8187" lon="4.3992">
        <ele>837.6</ele>
      </trkpt>
      <trkpt lat="44.81869" lon="4.3994">
        <ele>837.4</ele>
      </trkpt>
      <trkpt lat="44.8187" lon="4.39931">
        <ele>837.4</ele>
      </trkpt>
      <trkpt lat="44.81869" lon="4.39897">
        <ele>839.5</ele>
      </trkpt>
      <trkpt lat="44.81877" lon="4.39849">
        <ele>844.5</ele>
      </trkpt>
      <trkpt lat="44.81879" lon="4.39822">
        <ele>848.7</ele>
      </trkpt>
      <trkpt lat="44.81882" lon="4.398">
        <ele>852.5</ele>
      </trkpt>
      <trkpt lat="44.81902" lon="4.39773">
        <ele>854.9</ele>
      </trkpt>
      <trkpt lat="44.81911" lon="4.39752">
        <ele>859.2</ele>
      </trkpt>
      <trkpt lat="44.81915" lon="4.39737">
        <ele>862.3</ele>
      </trkpt>
      <trkpt lat="44.81929" lon="4.39701">
        <ele>868.1</ele>
      </trkpt>
      <trkpt lat="44.81939" lon="4.39676">
        <ele>870.2</ele>
      </trkpt>
      <trkpt lat="44.81934" lon="4.39673">
        <ele>873</ele>
      </trkpt>
      <trkpt lat="44.81919" lon="4.39686">
        <ele>875.5</ele>
      </trkpt>
      <trkpt lat="44.81909" lon="4.39707">
        <ele>873.4</ele>
      </trkpt>
      <trkpt lat="44.81894" lon="4.39726">
        <ele>873.7</ele>
      </trkpt>
      <trkpt lat="44.81889" lon="4.39725">
        <ele>876</ele>
      </trkpt>
      <trkpt lat="44.8189" lon="4.3971">
        <ele>880.1</ele>
      </trkpt>
      <trkpt lat="44.81916" lon="4.39647">
        <ele>887.2</ele>
      </trkpt>
      <trkpt lat="44.81945" lon="4.39589">
        <ele>896.5</ele>
      </trkpt>
      <trkpt lat="44.81972" lon="4.39564">
        <ele>901.6</ele>
      </trkpt>
      <trkpt lat="44.82" lon="4.39509">
        <ele>911.4</ele>
      </trkpt>
      <trkpt lat="44.82036" lon="4.39465">
        <ele>918.7</ele>
      </trkpt>
      <trkpt lat="44.82039" lon="4.39454">
        <ele>921.9</ele>
      </trkpt>
      <trkpt lat="44.82072" lon="4.39406">
        <ele>929.7</ele>
      </trkpt>
      <trkpt lat="44.82126" lon="4.39341">
        <ele>934.7</ele>
      </trkpt>
      <trkpt lat="44.82137" lon="4.39306">
        <ele>938.7</ele>
      </trkpt>
      <trkpt lat="44.82146" lon="4.39284">
        <ele>942.3</ele>
      </trkpt>
      <trkpt lat="44.82175" lon="4.39221">
        <ele>946.1</ele>
      </trkpt>
      <trkpt lat="44.82215" lon="4.39193">
        <ele>950.6</ele>
      </trkpt>
      <trkpt lat="44.82287" lon="4.39164">
        <ele>960.7</ele>
      </trkpt>
      <trkpt lat="44.82319" lon="4.39156">
        <ele>963.3</ele>
      </trkpt>
      <trkpt lat="44.82357" lon="4.39154">
        <ele>967.8</ele>
      </trkpt>
      <trkpt lat="44.82385" lon="4.39159">
        <ele>969.5</ele>
      </trkpt>
      <trkpt lat="44.82398" lon="4.3915">
        <ele>971.2</ele>
      </trkpt>
      <trkpt lat="44.82424" lon="4.39134">
        <ele>975.1</ele>
      </trkpt>
      <trkpt lat="44.82456" lon="4.39136">
        <ele>979.8</ele>
        <extensions>
          <visugpx:TrkExtension xmlns:visugpx="https://www.visugpx.com/editgpx/">
            <visugpx:node>14</visugpx:node>
            </visugpx:TrkExtension>
        </extensions>
      </trkpt>
      <trkpt lat="44.82468" lon="4.39183">
        <ele>979.1</ele>
      </trkpt>
      <trkpt lat="44.82485" lon="4.39235">
        <ele>977.3</ele>
      </trkpt>
      <trkpt lat="44.82498" lon="4.39262">
        <ele>975.1</ele>
      </trkpt>
      <trkpt lat="44.82542" lon="4.39289">
        <ele>972.6</ele>
      </trkpt>
      <trkpt lat="44.82601" lon="4.39319">
        <ele>968.1</ele>
      </trkpt>
      <trkpt lat="44.82613" lon="4.39325">
        <ele>966.6</ele>
      </trkpt>
      <trkpt lat="44.82627" lon="4.39356">
        <ele>961.3</ele>
      </trkpt>
      <trkpt lat="44.82629" lon="4.39396">
        <ele>959.5</ele>
      </trkpt>
      <trkpt lat="44.82632" lon="4.39427">
        <ele>958.5</ele>
      </trkpt>
      <trkpt lat="44.82641" lon="4.39449">
        <ele>956.7</ele>
      </trkpt>
      <trkpt lat="44.82689" lon="4.39511">
        <ele>939.7</ele>
      </trkpt>
      <trkpt lat="44.82754" lon="4.39672">
        <ele>914.1</ele>
      </trkpt>
      <trkpt lat="44.82784" lon="4.39766">
        <ele>898.5</ele>
      </trkpt>
      <trkpt lat="44.82821" lon="4.39851">
        <ele>881.7</ele>
      </trkpt>
      <trkpt lat="44.82885" lon="4.39982">
        <ele>867.8</ele>
      </trkpt>
      <trkpt lat="44.82943" lon="4.40101">
        <ele>846.3</ele>
      </trkpt>
      <trkpt lat="44.82947" lon="4.4017">
        <ele>844.9</ele>
      </trkpt>
      <trkpt lat="44.82916" lon="4.40268">
        <ele>848.7</ele>
      </trkpt>
      <trkpt lat="44.82934" lon="4.4037">
        <ele>819.9</ele>
        <extensions>
          <visugpx:TrkExtension xmlns:visugpx="https://www.visugpx.com/editgpx/">
            <visugpx:node>15</visugpx:node>
            </visugpx:TrkExtension>
        </extensions>
      </trkpt>
      <trkpt lat="44.82919" lon="4.40398">
        <ele>818.7</ele>
      </trkpt>
      <trkpt lat="44.82916" lon="4.40407">
        <ele>819</ele>
      </trkpt>
      <trkpt lat="44.82917" lon="4.4044">
        <ele>820.4</ele>
      </trkpt>
      <trkpt lat="44.829" lon="4.40506">
        <ele>823.5</ele>
      </trkpt>
      <trkpt lat="44.8289" lon="4.4055">
        <ele>823</ele>
      </trkpt>
      <trkpt lat="44.82874" lon="4.40605">
        <ele>825.2</ele>
      </trkpt>
      <trkpt lat="44.82865" lon="4.40652">
        <ele>826</ele>
      </trkpt>
      <trkpt lat="44.82852" lon="4.4072">
        <ele>829</ele>
      </trkpt>
      <trkpt lat="44.8285" lon="4.40737">
        <ele>829.5</ele>
      </trkpt>
      <trkpt lat="44.82848" lon="4.40767">
        <ele>829.5</ele>
      </trkpt>
      <trkpt lat="44.82839" lon="4.40809">
        <ele>830.9</ele>
      </trkpt>
      <trkpt lat="44.82822" lon="4.40833">
        <ele>833.1</ele>
      </trkpt>
      <trkpt lat="44.8281" lon="4.40847">
        <ele>833</ele>
      </trkpt>
      <trkpt lat="44.82783" lon="4.40874">
        <ele>833.9</ele>
      </trkpt>
      <trkpt lat="44.82751" lon="4.40902">
        <ele>835.4</ele>
      </trkpt>
      <trkpt lat="44.82714" lon="4.40932">
        <ele>838.4</ele>
      </trkpt>
      <trkpt lat="44.82689" lon="4.4096">
        <ele>838.4</ele>
      </trkpt>
      <trkpt lat="44.82668" lon="4.4098">
        <ele>839</ele>
      </trkpt>
      <trkpt lat="44.8264" lon="4.40996">
        <ele>841.2</ele>
      </trkpt>
      <trkpt lat="44.8263" lon="4.41001">
        <ele>841.9</ele>
      </trkpt>
      <trkpt lat="44.82611" lon="4.41015">
        <ele>842.2</ele>
      </trkpt>
      <trkpt lat="44.82595" lon="4.41033">
        <ele>843.8</ele>
      </trkpt>
      <trkpt lat="44.82586" lon="4.41051">
        <ele>843.8</ele>
      </trkpt>
      <trkpt lat="44.8257" lon="4.41067">
        <ele>844.9</ele>
      </trkpt>
      <trkpt lat="44.82514" lon="4.41126">
        <ele>845.8</ele>
      </trkpt>
      <trkpt lat="44.82502" lon="4.4113">
        <ele>847.1</ele>
      </trkpt>
      <trkpt lat="44.8249" lon="4.41129">
        <ele>847.8</ele>
      </trkpt>
      <trkpt lat="44.8246" lon="4.41123">
        <ele>848.6</ele>
      </trkpt>
      <trkpt lat="44.82433" lon="4.4111">
        <ele>853.4</ele>
      </trkpt>
      <trkpt lat="44.82428" lon="4.41112">
        <ele>853.7</ele>
      </trkpt>
      <trkpt lat="44.82424" lon="4.4112">
        <ele>852.6</ele>
      </trkpt>
      <trkpt lat="44.82412" lon="4.41142">
        <ele>852.4</ele>
      </trkpt>
      <trkpt lat="44.824" lon="4.41172">
        <ele>853.3</ele>
      </trkpt>
      <trkpt lat="44.82391" lon="4.41232">
        <ele>854.7</ele>
      </trkpt>
      <trkpt lat="44.82385" lon="4.41269">
        <ele>854.9</ele>
      </trkpt>
      <trkpt lat="44.8238" lon="4.41279">
        <ele>855.7</ele>
      </trkpt>
      <trkpt lat="44.82366" lon="4.41303">
        <ele>856.9</ele>
      </trkpt>
      <trkpt lat="44.8236" lon="4.41315">
        <ele>857.1</ele>
      </trkpt>
      <trkpt lat="44.82343" lon="4.41344">
        <ele>858.6</ele>
      </trkpt>
      <trkpt lat="44.82324" lon="4.41366">
        <ele>859.7</ele>
      </trkpt>
      <trkpt lat="44.82305" lon="4.41383">
        <ele>860.3</ele>
      </trkpt>
      <trkpt lat="44.82291" lon="4.41392">
        <ele>861</ele>
      </trkpt>
      <trkpt lat="44.82262" lon="4.41409">
        <ele>862.8</ele>
      </trkpt>
      <trkpt lat="44.82241" lon="4.4143">
        <ele>863.6</ele>
      </trkpt>
      <trkpt lat="44.8223" lon="4.41444">
        <ele>864</ele>
      </trkpt>
      <trkpt lat="44.82224" lon="4.41457">
        <ele>864.5</ele>
      </trkpt>
      <trkpt lat="44.82216" lon="4.41478">
        <ele>865.2</ele>
      </trkpt>
      <trkpt lat="44.82205" lon="4.41526">
        <ele>866.1</ele>
        <extensions>
          <visugpx:TrkExtension xmlns:visugpx="https://www.visugpx.com/editgpx/">
            <visugpx:node>16</visugpx:node>
            </visugpx:TrkExtension>
        </extensions>
      </trkpt>
      <trkpt lat="44.82192" lon="4.41567">
        <ele>867.2</ele>
      </trkpt>
      <trkpt lat="44.82183" lon="4.41568">
        <ele>865.7</ele>
      </trkpt>
      <trkpt lat="44.82173" lon="4.41574">
        <ele>864</ele>
      </trkpt>
      <trkpt lat="44.82158" lon="4.41576">
        <ele>860</ele>
      </trkpt>
      <trkpt lat="44.82148" lon="4.41564">
        <ele>856.7</ele>
      </trkpt>
      <trkpt lat="44.82134" lon="4.41559">
        <ele>852.1</ele>
      </trkpt>
      <trkpt lat="44.82117" lon="4.4155">
        <ele>845.9</ele>
      </trkpt>
      <trkpt lat="44.82103" lon="4.4158">
        <ele>836.6</ele>
      </trkpt>
      <trkpt lat="44.821" lon="4.41605">
        <ele>833.7</ele>
      </trkpt>
      <trkpt lat="44.82095" lon="4.41644">
        <ele>830.7</ele>
      </trkpt>
      <trkpt lat="44.82085" lon="4.41645">
        <ele>825</ele>
      </trkpt>
      <trkpt lat="44.82079" lon="4.41675">
        <ele>822.1</ele>
      </trkpt>
      <trkpt lat="44.82073" lon="4.41705">
        <ele>820.3</ele>
      </trkpt>
      <trkpt lat="44.82059" lon="4.41754">
        <ele>816</ele>
      </trkpt>
      <trkpt lat="44.82041" lon="4.41799">
        <ele>809.6</ele>
      </trkpt>
      <trkpt lat="44.82031" lon="4.41821">
        <ele>809.5</ele>
      </trkpt>
      <trkpt lat="44.82005" lon="4.41845">
        <ele>801.8</ele>
      </trkpt>
      <trkpt lat="44.81996" lon="4.42015">
        <ele>779.9</ele>
      </trkpt>
      <trkpt lat="44.8203" lon="4.42176">
        <ele>760</ele>
      </trkpt>
      <trkpt lat="44.82012" lon="4.42167">
        <ele>757.3</ele>
      </trkpt>
      <trkpt lat="44.82009" lon="4.42211">
        <ele>748.2</ele>
      </trkpt>
      <trkpt lat="44.81995" lon="4.42256">
        <ele>737.5</ele>
      </trkpt>
      <trkpt lat="44.81966" lon="4.42224">
        <ele>730.9</ele>
      </trkpt>
      <trkpt lat="44.8196" lon="4.42232">
        <ele>727.2</ele>
      </trkpt>
      <trkpt lat="44.81955" lon="4.42301">
        <ele>715.9</ele>
      </trkpt>
      <trkpt lat="44.81946" lon="4.42323">
        <ele>706.1</ele>
        <extensions>
          <visugpx:TrkExtension xmlns:visugpx="https://www.visugpx.com/editgpx/">
            <visugpx:node>17</visugpx:node>
            </visugpx:TrkExtension>
        </extensions>
      </trkpt>
      <trkpt lat="44.81954" lon="4.42334">
        <ele>703.8</ele>
      </trkpt>
      <trkpt lat="44.81989" lon="4.42355">
        <ele>700.3</ele>
      </trkpt>
      <trkpt lat="44.82025" lon="4.4234">
        <ele>700</ele>
      </trkpt>
      <trkpt lat="44.82048" lon="4.42347">
        <ele>696.7</ele>
      </trkpt>
      <trkpt lat="44.82056" lon="4.42367">
        <ele>691.4</ele>
      </trkpt>
      <trkpt lat="44.82077" lon="4.42405">
        <ele>687.2</ele>
      </trkpt>
      <trkpt lat="44.82081" lon="4.42422">
        <ele>684.6</ele>
      </trkpt>
      <trkpt lat="44.821" lon="4.42456">
        <ele>683.9</ele>
      </trkpt>
      <trkpt lat="44.82116" lon="4.4248">
        <ele>683.8</ele>
      </trkpt>
      <trkpt lat="44.8213" lon="4.42502">
        <ele>683.4</ele>
      </trkpt>
      <trkpt lat="44.82132" lon="4.42509">
        <ele>682.6</ele>
      </trkpt>
      <trkpt lat="44.82133" lon="4.42522">
        <ele>680.1</ele>
      </trkpt>
      <trkpt lat="44.82138" lon="4.42544">
        <ele>676.6</ele>
      </trkpt>
      <trkpt lat="44.82139" lon="4.42555">
        <ele>674.2</ele>
        <extensions>
          <visugpx:TrkExtension xmlns:visugpx="https://www.visugpx.com/editgpx/">
            <visugpx:node>18</visugpx:node>
            </visugpx:TrkExtension>
        </extensions>
      </trkpt>
      <trkpt lat="44.82139" lon="4.42564">
        <ele>672.8</ele>
      </trkpt>
      <trkpt lat="44.82138" lon="4.4257">
        <ele>671.6</ele>
      </trkpt>
      <trkpt lat="44.82131" lon="4.42572">
        <ele>668.7</ele>
      </trkpt>
      <trkpt lat="44.82125" lon="4.4256">
        <ele>668.7</ele>
      </trkpt>
      <trkpt lat="44.82118" lon="4.42548">
        <ele>668.9</ele>
      </trkpt>
      <trkpt lat="44.82109" lon="4.42542">
        <ele>667.3</ele>
      </trkpt>
      <trkpt lat="44.82107" lon="4.42551">
        <ele>664.7</ele>
      </trkpt>
      <trkpt lat="44.82117" lon="4.42586">
        <ele>660.7</ele>
      </trkpt>
      <trkpt lat="44.8212" lon="4.42618">
        <ele>656.2</ele>
      </trkpt>
      <trkpt lat="44.82113" lon="4.42634">
        <ele>651.3</ele>
      </trkpt>
      <trkpt lat="44.82112" lon="4.42666">
        <ele>646.6</ele>
      </trkpt>
      <trkpt lat="44.82105" lon="4.42675">
        <ele>644.2</ele>
      </trkpt>
      <trkpt lat="44.82108" lon="4.42693">
        <ele>644.8</ele>
      </trkpt>
      <trkpt lat="44.82095" lon="4.42729">
        <ele>637.3</ele>
      </trkpt>
      <trkpt lat="44.82087" lon="4.42736">
        <ele>633.9</ele>
      </trkpt>
      <trkpt lat="44.82088" lon="4.42755">
        <ele>633</ele>
      </trkpt>
      <trkpt lat="44.82098" lon="4.42792">
        <ele>631.5</ele>
        <extensions>
          <visugpx:TrkExtension xmlns:visugpx="https://www.visugpx.com/editgpx/">
            <visugpx:node>19</visugpx:node>
            </visugpx:TrkExtension>
        </extensions>
      </trkpt>
    </trkseg>
  </trk>
</gpx>